<?xml version="1.0" encoding="UTF-8" standalone="no" ?>
<gpx xmlns="http://www.topografix.com/GPX/1/1" xmlns:xsi="http://www.w3.org/2001/XMLSchema-instance" xsi:schemaLocation="http://www.topografix.com/GPX/1/1 http://www.topografix.com/GPX/1/1/gpx.xsd" version="1.1" creator="VisuGPX - https://www.visugpx.com">
  <metadata>
    <name>83 - V - Lorgues</name>
    <desc><![CDATA[grp_trc:]]></desc>
  </metadata>
  <trk>
    <name><![CDATA[13 sept. 2024]]></name>
    <cmt><![CDATA[13:47:20]]></cmt>
    <desc><![CDATA[comment ...]]></desc>
    <trkseg>
      <trkpt lat="43.52519" lon="6.34604">
        <ele>320</ele>
        <time>2024-09-13T11:47:21Z</time>
      </trkpt>
      <trkpt lat="43.52519" lon="6.34604">
        <ele>319</ele>
        <time>2024-09-13T11:47:23Z</time>
      </trkpt>
      <trkpt lat="43.52517" lon="6.3461">
        <ele>318</ele>
        <time>2024-09-13T11:47:46Z</time>
      </trkpt>
      <trkpt lat="43.5252" lon="6.34616">
        <ele>317</ele>
        <time>2024-09-13T11:47:59Z</time>
      </trkpt>
      <trkpt lat="43.52525" lon="6.34617">
        <ele>317</ele>
        <time>2024-09-13T11:48:07Z</time>
      </trkpt>
      <trkpt lat="43.52545" lon="6.34631">
        <ele>314</ele>
        <time>2024-09-13T11:48:30Z</time>
      </trkpt>
      <trkpt lat="43.52564" lon="6.34636">
        <ele>313</ele>
        <time>2024-09-13T11:48:50Z</time>
      </trkpt>
      <trkpt lat="43.52579" lon="6.3464">
        <ele>312</ele>
        <time>2024-09-13T11:49:05Z</time>
      </trkpt>
      <trkpt lat="43.5259" lon="6.34646">
        <ele>312</ele>
        <time>2024-09-13T11:49:19Z</time>
      </trkpt>
      <trkpt lat="43.52594" lon="6.34647">
        <ele>312</ele>
        <time>2024-09-13T11:49:25Z</time>
      </trkpt>
      <trkpt lat="43.52598" lon="6.34647">
        <ele>311</ele>
        <time>2024-09-13T11:49:29Z</time>
      </trkpt>
      <trkpt lat="43.52608" lon="6.34646">
        <ele>311</ele>
        <time>2024-09-13T11:49:38Z</time>
      </trkpt>
      <trkpt lat="43.52616" lon="6.34646">
        <ele>309</ele>
        <time>2024-09-13T11:49:48Z</time>
      </trkpt>
      <trkpt lat="43.5264" lon="6.3464">
        <ele>307</ele>
        <time>2024-09-13T11:50:14Z</time>
      </trkpt>
      <trkpt lat="43.52644" lon="6.34635">
        <ele>307</ele>
        <time>2024-09-13T11:50:20Z</time>
      </trkpt>
      <trkpt lat="43.52648" lon="6.34634">
        <ele>307</ele>
        <time>2024-09-13T11:50:26Z</time>
      </trkpt>
      <trkpt lat="43.52655" lon="6.34627">
        <ele>305</ele>
        <time>2024-09-13T11:50:34Z</time>
      </trkpt>
      <trkpt lat="43.5266" lon="6.34626">
        <ele>304</ele>
        <time>2024-09-13T11:50:38Z</time>
      </trkpt>
      <trkpt lat="43.52665" lon="6.34626">
        <ele>303</ele>
        <time>2024-09-13T11:50:42Z</time>
      </trkpt>
      <trkpt lat="43.52669" lon="6.34623">
        <ele>302</ele>
        <time>2024-09-13T11:50:46Z</time>
      </trkpt>
      <trkpt lat="43.52671" lon="6.34619">
        <ele>301</ele>
        <time>2024-09-13T11:50:50Z</time>
      </trkpt>
      <trkpt lat="43.5269" lon="6.34588">
        <ele>297</ele>
        <time>2024-09-13T11:51:22Z</time>
      </trkpt>
      <trkpt lat="43.52699" lon="6.34584">
        <ele>297</ele>
        <time>2024-09-13T11:51:32Z</time>
      </trkpt>
      <trkpt lat="43.52707" lon="6.34583">
        <ele>297</ele>
        <time>2024-09-13T11:51:42Z</time>
      </trkpt>
      <trkpt lat="43.52711" lon="6.3458">
        <ele>297</ele>
        <time>2024-09-13T11:51:48Z</time>
      </trkpt>
      <trkpt lat="43.52714" lon="6.34577">
        <ele>298</ele>
        <time>2024-09-13T11:51:54Z</time>
      </trkpt>
      <trkpt lat="43.52716" lon="6.34567">
        <ele>298</ele>
        <time>2024-09-13T11:52:04Z</time>
      </trkpt>
      <trkpt lat="43.52715" lon="6.34555">
        <ele>298</ele>
        <time>2024-09-13T11:52:12Z</time>
      </trkpt>
      <trkpt lat="43.52703" lon="6.34525">
        <ele>297</ele>
        <time>2024-09-13T11:52:42Z</time>
      </trkpt>
      <trkpt lat="43.52696" lon="6.34516">
        <ele>296</ele>
        <time>2024-09-13T11:52:50Z</time>
      </trkpt>
      <trkpt lat="43.52689" lon="6.3451">
        <ele>294</ele>
        <time>2024-09-13T11:52:58Z</time>
      </trkpt>
      <trkpt lat="43.52682" lon="6.34495">
        <ele>295</ele>
        <time>2024-09-13T11:53:10Z</time>
      </trkpt>
      <trkpt lat="43.52675" lon="6.34489">
        <ele>295</ele>
        <time>2024-09-13T11:53:18Z</time>
      </trkpt>
      <trkpt lat="43.52667" lon="6.34486">
        <ele>296</ele>
        <time>2024-09-13T11:53:26Z</time>
      </trkpt>
      <trkpt lat="43.5266" lon="6.34482">
        <ele>297</ele>
        <time>2024-09-13T11:53:34Z</time>
      </trkpt>
      <trkpt lat="43.52656" lon="6.34481">
        <ele>297</ele>
        <time>2024-09-13T11:53:38Z</time>
      </trkpt>
      <trkpt lat="43.52647" lon="6.34479">
        <ele>296</ele>
        <time>2024-09-13T11:53:46Z</time>
      </trkpt>
      <trkpt lat="43.52642" lon="6.34478">
        <ele>296</ele>
        <time>2024-09-13T11:53:50Z</time>
      </trkpt>
      <trkpt lat="43.52638" lon="6.3448">
        <ele>297</ele>
        <time>2024-09-13T11:53:54Z</time>
      </trkpt>
      <trkpt lat="43.5263" lon="6.34481">
        <ele>297</ele>
        <time>2024-09-13T11:54:02Z</time>
      </trkpt>
      <trkpt lat="43.52625" lon="6.34481">
        <ele>298</ele>
        <time>2024-09-13T11:54:18Z</time>
      </trkpt>
      <trkpt lat="43.52623" lon="6.34484">
        <ele>297</ele>
        <time>2024-09-13T11:54:30Z</time>
      </trkpt>
      <trkpt lat="43.52612" lon="6.34484">
        <ele>297</ele>
        <time>2024-09-13T11:54:42Z</time>
      </trkpt>
      <trkpt lat="43.52609" lon="6.34485">
        <ele>299</ele>
        <time>2024-09-13T11:54:46Z</time>
      </trkpt>
      <trkpt lat="43.52604" lon="6.34485">
        <ele>299</ele>
        <time>2024-09-13T11:54:50Z</time>
      </trkpt>
      <trkpt lat="43.52597" lon="6.3448">
        <ele>299</ele>
        <time>2024-09-13T11:54:58Z</time>
      </trkpt>
      <trkpt lat="43.52595" lon="6.34477">
        <ele>299</ele>
        <time>2024-09-13T11:55:02Z</time>
      </trkpt>
      <trkpt lat="43.52593" lon="6.34449">
        <ele>298</ele>
        <time>2024-09-13T11:55:22Z</time>
      </trkpt>
      <trkpt lat="43.52591" lon="6.34437">
        <ele>298</ele>
        <time>2024-09-13T11:55:30Z</time>
      </trkpt>
      <trkpt lat="43.5259" lon="6.34418">
        <ele>299</ele>
        <time>2024-09-13T11:55:43Z</time>
      </trkpt>
      <trkpt lat="43.52591" lon="6.34413">
        <ele>298</ele>
        <time>2024-09-13T11:55:47Z</time>
      </trkpt>
      <trkpt lat="43.5259" lon="6.34407">
        <ele>298</ele>
        <time>2024-09-13T11:55:52Z</time>
      </trkpt>
      <trkpt lat="43.52587" lon="6.34396">
        <ele>298</ele>
        <time>2024-09-13T11:56:02Z</time>
      </trkpt>
      <trkpt lat="43.52586" lon="6.34379">
        <ele>297</ele>
        <time>2024-09-13T11:56:15Z</time>
      </trkpt>
      <trkpt lat="43.52586" lon="6.34373">
        <ele>297</ele>
        <time>2024-09-13T11:56:18Z</time>
      </trkpt>
      <trkpt lat="43.52586" lon="6.34367">
        <ele>298</ele>
        <time>2024-09-13T11:56:22Z</time>
      </trkpt>
      <trkpt lat="43.52587" lon="6.34362">
        <ele>298</ele>
        <time>2024-09-13T11:56:26Z</time>
      </trkpt>
      <trkpt lat="43.52589" lon="6.34358">
        <ele>298</ele>
        <time>2024-09-13T11:56:30Z</time>
      </trkpt>
      <trkpt lat="43.52597" lon="6.34355">
        <ele>297</ele>
        <time>2024-09-13T11:56:42Z</time>
      </trkpt>
      <trkpt lat="43.52599" lon="6.34351">
        <ele>298</ele>
        <time>2024-09-13T11:56:46Z</time>
      </trkpt>
      <trkpt lat="43.52604" lon="6.34335">
        <ele>298</ele>
        <time>2024-09-13T11:56:59Z</time>
      </trkpt>
      <trkpt lat="43.52605" lon="6.34328">
        <ele>298</ele>
        <time>2024-09-13T11:57:04Z</time>
      </trkpt>
      <trkpt lat="43.5261" lon="6.34314">
        <ele>298</ele>
        <time>2024-09-13T11:57:17Z</time>
      </trkpt>
      <trkpt lat="43.52616" lon="6.34304">
        <ele>299</ele>
        <time>2024-09-13T11:57:28Z</time>
      </trkpt>
      <trkpt lat="43.52616" lon="6.34297">
        <ele>298</ele>
        <time>2024-09-13T11:57:32Z</time>
      </trkpt>
      <trkpt lat="43.52619" lon="6.34292">
        <ele>298</ele>
        <time>2024-09-13T11:57:37Z</time>
      </trkpt>
      <trkpt lat="43.52622" lon="6.34286">
        <ele>299</ele>
        <time>2024-09-13T11:57:42Z</time>
      </trkpt>
      <trkpt lat="43.52625" lon="6.34279">
        <ele>298</ele>
        <time>2024-09-13T11:57:48Z</time>
      </trkpt>
      <trkpt lat="43.52645" lon="6.34247">
        <ele>302</ele>
        <time>2024-09-13T11:58:21Z</time>
      </trkpt>
      <trkpt lat="43.52647" lon="6.34242">
        <ele>302</ele>
        <time>2024-09-13T11:58:26Z</time>
      </trkpt>
      <trkpt lat="43.52648" lon="6.34237">
        <ele>302</ele>
        <time>2024-09-13T11:58:32Z</time>
      </trkpt>
      <trkpt lat="43.52653" lon="6.34223">
        <ele>303</ele>
        <time>2024-09-13T11:58:45Z</time>
      </trkpt>
      <trkpt lat="43.5266" lon="6.34209">
        <ele>304</ele>
        <time>2024-09-13T11:58:59Z</time>
      </trkpt>
      <trkpt lat="43.52669" lon="6.3419">
        <ele>307</ele>
        <time>2024-09-13T11:59:20Z</time>
      </trkpt>
      <trkpt lat="43.52671" lon="6.34184">
        <ele>308</ele>
        <time>2024-09-13T11:59:26Z</time>
      </trkpt>
      <trkpt lat="43.52693" lon="6.34159">
        <ele>310</ele>
        <time>2024-09-13T11:59:57Z</time>
      </trkpt>
      <trkpt lat="43.52698" lon="6.34156">
        <ele>310</ele>
        <time>2024-09-13T12:00:02Z</time>
      </trkpt>
      <trkpt lat="43.52703" lon="6.34148">
        <ele>310</ele>
        <time>2024-09-13T12:00:10Z</time>
      </trkpt>
      <trkpt lat="43.52707" lon="6.34139">
        <ele>311</ele>
        <time>2024-09-13T12:00:18Z</time>
      </trkpt>
      <trkpt lat="43.5271" lon="6.34134">
        <ele>311</ele>
        <time>2024-09-13T12:00:24Z</time>
      </trkpt>
      <trkpt lat="43.52721" lon="6.3413">
        <ele>312</ele>
        <time>2024-09-13T12:00:39Z</time>
      </trkpt>
      <trkpt lat="43.52725" lon="6.34126">
        <ele>313</ele>
        <time>2024-09-13T12:00:45Z</time>
      </trkpt>
      <trkpt lat="43.5273" lon="6.34122">
        <ele>313</ele>
        <time>2024-09-13T12:00:51Z</time>
      </trkpt>
      <trkpt lat="43.52739" lon="6.34116">
        <ele>314</ele>
        <time>2024-09-13T12:01:02Z</time>
      </trkpt>
      <trkpt lat="43.52742" lon="6.34113">
        <ele>314</ele>
        <time>2024-09-13T12:01:07Z</time>
      </trkpt>
      <trkpt lat="43.52744" lon="6.34103">
        <ele>314</ele>
        <time>2024-09-13T12:01:15Z</time>
      </trkpt>
      <trkpt lat="43.52744" lon="6.34097">
        <ele>313</ele>
        <time>2024-09-13T12:01:19Z</time>
      </trkpt>
      <trkpt lat="43.52748" lon="6.34088">
        <ele>313</ele>
        <time>2024-09-13T12:01:28Z</time>
      </trkpt>
      <trkpt lat="43.52752" lon="6.34086">
        <ele>313</ele>
        <time>2024-09-13T12:01:33Z</time>
      </trkpt>
      <trkpt lat="43.52758" lon="6.34087">
        <ele>313</ele>
        <time>2024-09-13T12:01:39Z</time>
      </trkpt>
      <trkpt lat="43.52763" lon="6.34087">
        <ele>314</ele>
        <time>2024-09-13T12:01:45Z</time>
      </trkpt>
      <trkpt lat="43.52767" lon="6.34086">
        <ele>314</ele>
        <time>2024-09-13T12:01:52Z</time>
      </trkpt>
      <trkpt lat="43.52773" lon="6.34088">
        <ele>314</ele>
        <time>2024-09-13T12:01:58Z</time>
      </trkpt>
      <trkpt lat="43.52777" lon="6.3409">
        <ele>315</ele>
        <time>2024-09-13T12:02:02Z</time>
      </trkpt>
      <trkpt lat="43.5278" lon="6.34089">
        <ele>315</ele>
        <time>2024-09-13T12:02:06Z</time>
      </trkpt>
      <trkpt lat="43.52795" lon="6.34085">
        <ele>313</ele>
        <time>2024-09-13T12:02:20Z</time>
      </trkpt>
      <trkpt lat="43.52803" lon="6.34082">
        <ele>313</ele>
        <time>2024-09-13T12:02:29Z</time>
      </trkpt>
      <trkpt lat="43.52809" lon="6.34083">
        <ele>313</ele>
        <time>2024-09-13T12:02:36Z</time>
      </trkpt>
      <trkpt lat="43.52829" lon="6.34078">
        <ele>314</ele>
        <time>2024-09-13T12:02:59Z</time>
      </trkpt>
      <trkpt lat="43.52837" lon="6.34072">
        <ele>313</ele>
        <time>2024-09-13T12:03:07Z</time>
      </trkpt>
      <trkpt lat="43.52842" lon="6.34071">
        <ele>313</ele>
        <time>2024-09-13T12:03:13Z</time>
      </trkpt>
      <trkpt lat="43.52846" lon="6.34067">
        <ele>313</ele>
        <time>2024-09-13T12:03:19Z</time>
      </trkpt>
      <trkpt lat="43.52847" lon="6.34062">
        <ele>313</ele>
        <time>2024-09-13T12:03:25Z</time>
      </trkpt>
      <trkpt lat="43.52847" lon="6.34056">
        <ele>314</ele>
        <time>2024-09-13T12:03:34Z</time>
      </trkpt>
      <trkpt lat="43.5285" lon="6.34049">
        <ele>314</ele>
        <time>2024-09-13T12:03:42Z</time>
      </trkpt>
      <trkpt lat="43.52857" lon="6.34042">
        <ele>314</ele>
        <time>2024-09-13T12:03:55Z</time>
      </trkpt>
      <trkpt lat="43.52864" lon="6.34034">
        <ele>315</ele>
        <time>2024-09-13T12:04:11Z</time>
      </trkpt>
      <trkpt lat="43.52867" lon="6.3403">
        <ele>315</ele>
        <time>2024-09-13T12:04:18Z</time>
      </trkpt>
      <trkpt lat="43.5287" lon="6.3402">
        <ele>316</ele>
        <time>2024-09-13T12:04:29Z</time>
      </trkpt>
      <trkpt lat="43.52878" lon="6.34009">
        <ele>317</ele>
        <time>2024-09-13T12:04:41Z</time>
      </trkpt>
      <trkpt lat="43.52879" lon="6.34004">
        <ele>317</ele>
        <time>2024-09-13T12:04:45Z</time>
      </trkpt>
      <trkpt lat="43.5288" lon="6.33998">
        <ele>318</ele>
        <time>2024-09-13T12:04:53Z</time>
      </trkpt>
      <trkpt lat="43.5288" lon="6.33992">
        <ele>317</ele>
        <time>2024-09-13T12:04:58Z</time>
      </trkpt>
      <trkpt lat="43.52881" lon="6.33986">
        <ele>318</ele>
        <time>2024-09-13T12:05:02Z</time>
      </trkpt>
      <trkpt lat="43.5288" lon="6.3398">
        <ele>318</ele>
        <time>2024-09-13T12:05:07Z</time>
      </trkpt>
      <trkpt lat="43.52879" lon="6.33976">
        <ele>319</ele>
        <time>2024-09-13T12:05:14Z</time>
      </trkpt>
      <trkpt lat="43.52874" lon="6.33966">
        <ele>318</ele>
        <time>2024-09-13T12:05:31Z</time>
      </trkpt>
      <trkpt lat="43.52874" lon="6.3396">
        <ele>319</ele>
        <time>2024-09-13T12:05:37Z</time>
      </trkpt>
      <trkpt lat="43.52877" lon="6.33954">
        <ele>319</ele>
        <time>2024-09-13T12:05:43Z</time>
      </trkpt>
      <trkpt lat="43.52878" lon="6.33946">
        <ele>319</ele>
        <time>2024-09-13T12:05:49Z</time>
      </trkpt>
      <trkpt lat="43.52885" lon="6.33928">
        <ele>320</ele>
        <time>2024-09-13T12:06:06Z</time>
      </trkpt>
      <trkpt lat="43.52889" lon="6.33923">
        <ele>321</ele>
        <time>2024-09-13T12:06:15Z</time>
      </trkpt>
      <trkpt lat="43.52894" lon="6.33922">
        <ele>322</ele>
        <time>2024-09-13T12:06:23Z</time>
      </trkpt>
      <trkpt lat="43.52899" lon="6.3392">
        <ele>322</ele>
        <time>2024-09-13T12:06:29Z</time>
      </trkpt>
      <trkpt lat="43.52901" lon="6.33915">
        <ele>322</ele>
        <time>2024-09-13T12:06:35Z</time>
      </trkpt>
      <trkpt lat="43.52901" lon="6.33909">
        <ele>322</ele>
        <time>2024-09-13T12:06:41Z</time>
      </trkpt>
      <trkpt lat="43.529" lon="6.33898">
        <ele>321</ele>
        <time>2024-09-13T12:06:55Z</time>
      </trkpt>
      <trkpt lat="43.52902" lon="6.33892">
        <ele>322</ele>
        <time>2024-09-13T12:07:05Z</time>
      </trkpt>
      <trkpt lat="43.52904" lon="6.33888">
        <ele>323</ele>
        <time>2024-09-13T12:07:11Z</time>
      </trkpt>
      <trkpt lat="43.52902" lon="6.33884">
        <ele>323</ele>
        <time>2024-09-13T12:07:17Z</time>
      </trkpt>
      <trkpt lat="43.52895" lon="6.33878">
        <ele>323</ele>
        <time>2024-09-13T12:07:27Z</time>
      </trkpt>
      <trkpt lat="43.52889" lon="6.33872">
        <ele>324</ele>
        <time>2024-09-13T12:07:36Z</time>
      </trkpt>
      <trkpt lat="43.52889" lon="6.33868">
        <ele>326</ele>
        <time>2024-09-13T12:08:30Z</time>
      </trkpt>
      <trkpt lat="43.52888" lon="6.33866">
        <ele>329</ele>
        <time>2024-09-13T12:08:46Z</time>
      </trkpt>
      <trkpt lat="43.52888" lon="6.33861">
        <ele>331</ele>
        <time>2024-09-13T12:09:36Z</time>
      </trkpt>
      <trkpt lat="43.52889" lon="6.33855">
        <ele>331</ele>
        <time>2024-09-13T12:09:42Z</time>
      </trkpt>
      <trkpt lat="43.52894" lon="6.33848">
        <ele>333</ele>
        <time>2024-09-13T12:09:53Z</time>
      </trkpt>
      <trkpt lat="43.52894" lon="6.33844">
        <ele>333</ele>
        <time>2024-09-13T12:09:57Z</time>
      </trkpt>
      <trkpt lat="43.529" lon="6.33832">
        <ele>335</ele>
        <time>2024-09-13T12:10:13Z</time>
      </trkpt>
      <trkpt lat="43.52914" lon="6.3381">
        <ele>335</ele>
        <time>2024-09-13T12:10:38Z</time>
      </trkpt>
      <trkpt lat="43.5292" lon="6.33796">
        <ele>336</ele>
        <time>2024-09-13T12:10:53Z</time>
      </trkpt>
      <trkpt lat="43.52922" lon="6.3379">
        <ele>336</ele>
        <time>2024-09-13T12:10:59Z</time>
      </trkpt>
      <trkpt lat="43.52927" lon="6.33779">
        <ele>335</ele>
        <time>2024-09-13T12:11:11Z</time>
      </trkpt>
      <trkpt lat="43.52929" lon="6.33774">
        <ele>335</ele>
        <time>2024-09-13T12:11:34Z</time>
      </trkpt>
      <trkpt lat="43.5293" lon="6.3377">
        <ele>335</ele>
        <time>2024-09-13T12:12:14Z</time>
      </trkpt>
      <trkpt lat="43.52933" lon="6.33765">
        <ele>335</ele>
        <time>2024-09-13T12:12:22Z</time>
      </trkpt>
      <trkpt lat="43.52936" lon="6.33763">
        <ele>335</ele>
        <time>2024-09-13T12:12:38Z</time>
      </trkpt>
      <trkpt lat="43.5294" lon="6.33757">
        <ele>334</ele>
        <time>2024-09-13T12:12:47Z</time>
      </trkpt>
      <trkpt lat="43.52941" lon="6.33751">
        <ele>334</ele>
        <time>2024-09-13T12:12:53Z</time>
      </trkpt>
      <trkpt lat="43.52943" lon="6.33747">
        <ele>333</ele>
        <time>2024-09-13T12:12:59Z</time>
      </trkpt>
      <trkpt lat="43.52945" lon="6.33742">
        <ele>334</ele>
        <time>2024-09-13T12:13:07Z</time>
      </trkpt>
      <trkpt lat="43.52946" lon="6.33738">
        <ele>333</ele>
        <time>2024-09-13T12:13:19Z</time>
      </trkpt>
      <trkpt lat="43.52949" lon="6.33735">
        <ele>333</ele>
        <time>2024-09-13T12:14:16Z</time>
      </trkpt>
      <trkpt lat="43.52952" lon="6.33732">
        <ele>332</ele>
        <time>2024-09-13T12:14:23Z</time>
      </trkpt>
      <trkpt lat="43.52955" lon="6.33729">
        <ele>333</ele>
        <time>2024-09-13T12:14:40Z</time>
      </trkpt>
      <trkpt lat="43.52964" lon="6.33729">
        <ele>332</ele>
        <time>2024-09-13T12:14:55Z</time>
      </trkpt>
      <trkpt lat="43.52972" lon="6.33722">
        <ele>332</ele>
        <time>2024-09-13T12:15:05Z</time>
      </trkpt>
      <trkpt lat="43.52978" lon="6.3372">
        <ele>333</ele>
        <time>2024-09-13T12:15:14Z</time>
      </trkpt>
      <trkpt lat="43.52983" lon="6.33721">
        <ele>333</ele>
        <time>2024-09-13T12:15:21Z</time>
      </trkpt>
      <trkpt lat="43.5299" lon="6.33721">
        <ele>332</ele>
        <time>2024-09-13T12:15:30Z</time>
      </trkpt>
      <trkpt lat="43.53003" lon="6.33719">
        <ele>333</ele>
        <time>2024-09-13T12:15:47Z</time>
      </trkpt>
      <trkpt lat="43.53006" lon="6.33715">
        <ele>334</ele>
        <time>2024-09-13T12:15:54Z</time>
      </trkpt>
      <trkpt lat="43.53011" lon="6.33713">
        <ele>333</ele>
        <time>2024-09-13T12:16:00Z</time>
      </trkpt>
      <trkpt lat="43.53023" lon="6.33707">
        <ele>332</ele>
        <time>2024-09-13T12:16:17Z</time>
      </trkpt>
      <trkpt lat="43.53031" lon="6.33707">
        <ele>333</ele>
        <time>2024-09-13T12:16:29Z</time>
      </trkpt>
      <trkpt lat="43.53039" lon="6.33716">
        <ele>335</ele>
        <time>2024-09-13T12:16:42Z</time>
      </trkpt>
      <trkpt lat="43.53043" lon="6.33721">
        <ele>336</ele>
        <time>2024-09-13T12:16:49Z</time>
      </trkpt>
      <trkpt lat="43.53049" lon="6.33728">
        <ele>337</ele>
        <time>2024-09-13T12:16:58Z</time>
      </trkpt>
      <trkpt lat="43.5305" lon="6.33734">
        <ele>337</ele>
        <time>2024-09-13T12:17:04Z</time>
      </trkpt>
      <trkpt lat="43.53058" lon="6.33749">
        <ele>339</ele>
        <time>2024-09-13T12:17:17Z</time>
      </trkpt>
      <trkpt lat="43.53074" lon="6.33765">
        <ele>338</ele>
        <time>2024-09-13T12:17:41Z</time>
      </trkpt>
      <trkpt lat="43.53084" lon="6.3377">
        <ele>337</ele>
        <time>2024-09-13T12:17:55Z</time>
      </trkpt>
      <trkpt lat="43.53094" lon="6.3377">
        <ele>337</ele>
        <time>2024-09-13T12:18:07Z</time>
      </trkpt>
      <trkpt lat="43.53108" lon="6.33769">
        <ele>336</ele>
        <time>2024-09-13T12:18:22Z</time>
      </trkpt>
      <trkpt lat="43.53113" lon="6.33767">
        <ele>336</ele>
        <time>2024-09-13T12:18:27Z</time>
      </trkpt>
      <trkpt lat="43.5314" lon="6.33761">
        <ele>337</ele>
        <time>2024-09-13T12:18:55Z</time>
      </trkpt>
      <trkpt lat="43.53145" lon="6.33757">
        <ele>336</ele>
        <time>2024-09-13T12:19:00Z</time>
      </trkpt>
      <trkpt lat="43.5315" lon="6.33755">
        <ele>336</ele>
        <time>2024-09-13T12:19:06Z</time>
      </trkpt>
      <trkpt lat="43.53155" lon="6.33756">
        <ele>336</ele>
        <time>2024-09-13T12:19:12Z</time>
      </trkpt>
      <trkpt lat="43.5316" lon="6.33754">
        <ele>335</ele>
        <time>2024-09-13T12:19:16Z</time>
      </trkpt>
      <trkpt lat="43.53175" lon="6.33747">
        <ele>335</ele>
        <time>2024-09-13T12:19:34Z</time>
      </trkpt>
      <trkpt lat="43.53182" lon="6.33744">
        <ele>335</ele>
        <time>2024-09-13T12:19:42Z</time>
      </trkpt>
      <trkpt lat="43.53186" lon="6.33745">
        <ele>335</ele>
        <time>2024-09-13T12:19:49Z</time>
      </trkpt>
      <trkpt lat="43.53192" lon="6.33745">
        <ele>335</ele>
        <time>2024-09-13T12:19:56Z</time>
      </trkpt>
      <trkpt lat="43.53215" lon="6.33741">
        <ele>336</ele>
        <time>2024-09-13T12:20:20Z</time>
      </trkpt>
      <trkpt lat="43.53219" lon="6.33739">
        <ele>336</ele>
        <time>2024-09-13T12:20:24Z</time>
      </trkpt>
      <trkpt lat="43.53224" lon="6.33739">
        <ele>336</ele>
        <time>2024-09-13T12:20:30Z</time>
      </trkpt>
      <trkpt lat="43.53228" lon="6.33741">
        <ele>336</ele>
        <time>2024-09-13T12:20:34Z</time>
      </trkpt>
      <trkpt lat="43.53231" lon="6.3374">
        <ele>336</ele>
        <time>2024-09-13T12:20:38Z</time>
      </trkpt>
      <trkpt lat="43.53246" lon="6.33734">
        <ele>333</ele>
        <time>2024-09-13T12:20:55Z</time>
      </trkpt>
      <trkpt lat="43.53261" lon="6.33738">
        <ele>334</ele>
        <time>2024-09-13T12:21:13Z</time>
      </trkpt>
      <trkpt lat="43.53271" lon="6.33738">
        <ele>334</ele>
        <time>2024-09-13T12:21:26Z</time>
      </trkpt>
      <trkpt lat="43.53276" lon="6.33737">
        <ele>334</ele>
        <time>2024-09-13T12:21:30Z</time>
      </trkpt>
      <trkpt lat="43.53279" lon="6.33734">
        <ele>333</ele>
        <time>2024-09-13T12:21:34Z</time>
      </trkpt>
      <trkpt lat="43.53291" lon="6.33734">
        <ele>333</ele>
        <time>2024-09-13T12:21:50Z</time>
      </trkpt>
      <trkpt lat="43.53296" lon="6.33732">
        <ele>334</ele>
        <time>2024-09-13T12:21:54Z</time>
      </trkpt>
      <trkpt lat="43.533" lon="6.33727">
        <ele>333</ele>
        <time>2024-09-13T12:22:00Z</time>
      </trkpt>
      <trkpt lat="43.53303" lon="6.33723">
        <ele>333</ele>
        <time>2024-09-13T12:22:06Z</time>
      </trkpt>
      <trkpt lat="43.53303" lon="6.33719">
        <ele>333</ele>
        <time>2024-09-13T12:22:13Z</time>
      </trkpt>
      <trkpt lat="43.53304" lon="6.33713">
        <ele>334</ele>
        <time>2024-09-13T12:22:19Z</time>
      </trkpt>
      <trkpt lat="43.53302" lon="6.33707">
        <ele>334</ele>
        <time>2024-09-13T12:22:29Z</time>
      </trkpt>
      <trkpt lat="43.53303" lon="6.33702">
        <ele>334</ele>
        <time>2024-09-13T12:22:35Z</time>
      </trkpt>
      <trkpt lat="43.53303" lon="6.33694">
        <ele>334</ele>
        <time>2024-09-13T12:22:44Z</time>
      </trkpt>
      <trkpt lat="43.53305" lon="6.33688">
        <ele>335</ele>
        <time>2024-09-13T12:22:50Z</time>
      </trkpt>
      <trkpt lat="43.53305" lon="6.33679">
        <ele>336</ele>
        <time>2024-09-13T12:22:57Z</time>
      </trkpt>
      <trkpt lat="43.53306" lon="6.33673">
        <ele>335</ele>
        <time>2024-09-13T12:23:03Z</time>
      </trkpt>
      <trkpt lat="43.53306" lon="6.33659">
        <ele>336</ele>
        <time>2024-09-13T12:23:20Z</time>
      </trkpt>
      <trkpt lat="43.53304" lon="6.33654">
        <ele>336</ele>
        <time>2024-09-13T12:23:29Z</time>
      </trkpt>
      <trkpt lat="43.53303" lon="6.33648">
        <ele>336</ele>
        <time>2024-09-13T12:23:35Z</time>
      </trkpt>
      <trkpt lat="43.53303" lon="6.33637">
        <ele>337</ele>
        <time>2024-09-13T12:23:48Z</time>
      </trkpt>
      <trkpt lat="43.53304" lon="6.33632">
        <ele>338</ele>
        <time>2024-09-13T12:23:52Z</time>
      </trkpt>
      <trkpt lat="43.53304" lon="6.33621">
        <ele>339</ele>
        <time>2024-09-13T12:24:04Z</time>
      </trkpt>
      <trkpt lat="43.53309" lon="6.33612">
        <ele>341</ele>
        <time>2024-09-13T12:24:15Z</time>
      </trkpt>
      <trkpt lat="43.53313" lon="6.33608">
        <ele>342</ele>
        <time>2024-09-13T12:24:19Z</time>
      </trkpt>
      <trkpt lat="43.5332" lon="6.33601">
        <ele>342</ele>
        <time>2024-09-13T12:24:30Z</time>
      </trkpt>
      <trkpt lat="43.53324" lon="6.33599">
        <ele>342</ele>
        <time>2024-09-13T12:24:36Z</time>
      </trkpt>
      <trkpt lat="43.53332" lon="6.33594">
        <ele>343</ele>
        <time>2024-09-13T12:24:48Z</time>
      </trkpt>
      <trkpt lat="43.53336" lon="6.3359">
        <ele>343</ele>
        <time>2024-09-13T12:24:56Z</time>
      </trkpt>
      <trkpt lat="43.5335" lon="6.33588">
        <ele>345</ele>
        <time>2024-09-13T12:25:21Z</time>
      </trkpt>
      <trkpt lat="43.53354" lon="6.33588">
        <ele>346</ele>
        <time>2024-09-13T12:25:58Z</time>
      </trkpt>
      <trkpt lat="43.53358" lon="6.33587">
        <ele>348</ele>
        <time>2024-09-13T12:26:33Z</time>
      </trkpt>
      <trkpt lat="43.53381" lon="6.33584">
        <ele>350</ele>
        <time>2024-09-13T12:27:05Z</time>
      </trkpt>
      <trkpt lat="43.53386" lon="6.33582">
        <ele>351</ele>
        <time>2024-09-13T12:27:13Z</time>
      </trkpt>
      <trkpt lat="43.53411" lon="6.33572">
        <ele>349</ele>
        <time>2024-09-13T12:27:45Z</time>
      </trkpt>
      <trkpt lat="43.53434" lon="6.33564">
        <ele>349</ele>
        <time>2024-09-13T12:28:09Z</time>
      </trkpt>
      <trkpt lat="43.53444" lon="6.33566">
        <ele>349</ele>
        <time>2024-09-13T12:28:18Z</time>
      </trkpt>
      <trkpt lat="43.53456" lon="6.33569">
        <ele>350</ele>
        <time>2024-09-13T12:28:28Z</time>
      </trkpt>
      <trkpt lat="43.53459" lon="6.33566">
        <ele>350</ele>
        <time>2024-09-13T12:28:31Z</time>
      </trkpt>
      <trkpt lat="43.53488" lon="6.33543">
        <ele>350</ele>
        <time>2024-09-13T12:29:01Z</time>
      </trkpt>
      <trkpt lat="43.53505" lon="6.33533">
        <ele>350</ele>
        <time>2024-09-13T12:29:19Z</time>
      </trkpt>
      <trkpt lat="43.5351" lon="6.33532">
        <ele>350</ele>
        <time>2024-09-13T12:29:23Z</time>
      </trkpt>
      <trkpt lat="43.53518" lon="6.33528">
        <ele>351</ele>
        <time>2024-09-13T12:29:32Z</time>
      </trkpt>
      <trkpt lat="43.53523" lon="6.33527">
        <ele>351</ele>
        <time>2024-09-13T12:29:36Z</time>
      </trkpt>
      <trkpt lat="43.53533" lon="6.33526">
        <ele>352</ele>
        <time>2024-09-13T12:29:45Z</time>
      </trkpt>
      <trkpt lat="43.53551" lon="6.33524">
        <ele>351</ele>
        <time>2024-09-13T12:30:02Z</time>
      </trkpt>
      <trkpt lat="43.53554" lon="6.33521">
        <ele>350</ele>
        <time>2024-09-13T12:30:06Z</time>
      </trkpt>
      <trkpt lat="43.53564" lon="6.33514">
        <ele>350</ele>
        <time>2024-09-13T12:30:18Z</time>
      </trkpt>
      <trkpt lat="43.53568" lon="6.33505">
        <ele>350</ele>
        <time>2024-09-13T12:30:25Z</time>
      </trkpt>
      <trkpt lat="43.53571" lon="6.3349">
        <ele>348</ele>
        <time>2024-09-13T12:30:38Z</time>
      </trkpt>
      <trkpt lat="43.53573" lon="6.33484">
        <ele>348</ele>
        <time>2024-09-13T12:30:44Z</time>
      </trkpt>
      <trkpt lat="43.53578" lon="6.33478">
        <ele>348</ele>
        <time>2024-09-13T12:30:52Z</time>
      </trkpt>
      <trkpt lat="43.5358" lon="6.33472">
        <ele>348</ele>
        <time>2024-09-13T12:30:58Z</time>
      </trkpt>
      <trkpt lat="43.53582" lon="6.33468">
        <ele>348</ele>
        <time>2024-09-13T12:31:02Z</time>
      </trkpt>
      <trkpt lat="43.53584" lon="6.33459">
        <ele>348</ele>
        <time>2024-09-13T12:31:09Z</time>
      </trkpt>
      <trkpt lat="43.53594" lon="6.3345">
        <ele>345</ele>
        <time>2024-09-13T12:31:25Z</time>
      </trkpt>
      <trkpt lat="43.53599" lon="6.33449">
        <ele>345</ele>
        <time>2024-09-13T12:31:32Z</time>
      </trkpt>
      <trkpt lat="43.53603" lon="6.33446">
        <ele>345</ele>
        <time>2024-09-13T12:31:38Z</time>
      </trkpt>
      <trkpt lat="43.53607" lon="6.33442">
        <ele>345</ele>
        <time>2024-09-13T12:31:44Z</time>
      </trkpt>
      <trkpt lat="43.53611" lon="6.33437">
        <ele>344</ele>
        <time>2024-09-13T12:31:51Z</time>
      </trkpt>
      <trkpt lat="43.53615" lon="6.33434">
        <ele>344</ele>
        <time>2024-09-13T12:31:56Z</time>
      </trkpt>
      <trkpt lat="43.5362" lon="6.33432">
        <ele>344</ele>
        <time>2024-09-13T12:32:02Z</time>
      </trkpt>
      <trkpt lat="43.53641" lon="6.33411">
        <ele>347</ele>
        <time>2024-09-13T12:32:31Z</time>
      </trkpt>
      <trkpt lat="43.53645" lon="6.33408">
        <ele>347</ele>
        <time>2024-09-13T12:32:35Z</time>
      </trkpt>
      <trkpt lat="43.53653" lon="6.33402">
        <ele>347</ele>
        <time>2024-09-13T12:32:45Z</time>
      </trkpt>
      <trkpt lat="43.53658" lon="6.33396">
        <ele>346</ele>
        <time>2024-09-13T12:32:51Z</time>
      </trkpt>
      <trkpt lat="43.53662" lon="6.3339">
        <ele>346</ele>
        <time>2024-09-13T12:32:59Z</time>
      </trkpt>
      <trkpt lat="43.53668" lon="6.33385">
        <ele>345</ele>
        <time>2024-09-13T12:33:05Z</time>
      </trkpt>
      <trkpt lat="43.53686" lon="6.33361">
        <ele>349</ele>
        <time>2024-09-13T12:33:34Z</time>
      </trkpt>
      <trkpt lat="43.5369" lon="6.33355">
        <ele>349</ele>
        <time>2024-09-13T12:33:42Z</time>
      </trkpt>
      <trkpt lat="43.53695" lon="6.33351">
        <ele>350</ele>
        <time>2024-09-13T12:33:48Z</time>
      </trkpt>
      <trkpt lat="43.53697" lon="6.33343">
        <ele>350</ele>
        <time>2024-09-13T12:33:54Z</time>
      </trkpt>
      <trkpt lat="43.537" lon="6.33341">
        <ele>350</ele>
        <time>2024-09-13T12:33:58Z</time>
      </trkpt>
      <trkpt lat="43.53704" lon="6.33336">
        <ele>350</ele>
        <time>2024-09-13T12:34:04Z</time>
      </trkpt>
      <trkpt lat="43.53707" lon="6.33329">
        <ele>349</ele>
        <time>2024-09-13T12:34:10Z</time>
      </trkpt>
      <trkpt lat="43.5371" lon="6.33324">
        <ele>349</ele>
        <time>2024-09-13T12:34:15Z</time>
      </trkpt>
      <trkpt lat="43.53716" lon="6.33315">
        <ele>349</ele>
        <time>2024-09-13T12:34:23Z</time>
      </trkpt>
      <trkpt lat="43.5372" lon="6.33308">
        <ele>350</ele>
        <time>2024-09-13T12:34:30Z</time>
      </trkpt>
      <trkpt lat="43.53726" lon="6.33298">
        <ele>351</ele>
        <time>2024-09-13T12:34:40Z</time>
      </trkpt>
      <trkpt lat="43.53744" lon="6.33276">
        <ele>353</ele>
        <time>2024-09-13T12:35:10Z</time>
      </trkpt>
      <trkpt lat="43.5375" lon="6.33265">
        <ele>355</ele>
        <time>2024-09-13T12:35:21Z</time>
      </trkpt>
      <trkpt lat="43.53752" lon="6.33259">
        <ele>354</ele>
        <time>2024-09-13T12:35:30Z</time>
      </trkpt>
      <trkpt lat="43.53758" lon="6.33246">
        <ele>353</ele>
        <time>2024-09-13T12:35:42Z</time>
      </trkpt>
      <trkpt lat="43.53762" lon="6.3324">
        <ele>353</ele>
        <time>2024-09-13T12:35:47Z</time>
      </trkpt>
      <trkpt lat="43.53765" lon="6.33234">
        <ele>354</ele>
        <time>2024-09-13T12:35:53Z</time>
      </trkpt>
      <trkpt lat="43.53769" lon="6.33229">
        <ele>353</ele>
        <time>2024-09-13T12:36:00Z</time>
      </trkpt>
      <trkpt lat="43.53774" lon="6.33224">
        <ele>353</ele>
        <time>2024-09-13T12:36:06Z</time>
      </trkpt>
      <trkpt lat="43.53775" lon="6.33219">
        <ele>353</ele>
        <time>2024-09-13T12:36:10Z</time>
      </trkpt>
      <trkpt lat="43.53778" lon="6.33214">
        <ele>353</ele>
        <time>2024-09-13T12:36:16Z</time>
      </trkpt>
      <trkpt lat="43.53781" lon="6.33209">
        <ele>354</ele>
        <time>2024-09-13T12:36:22Z</time>
      </trkpt>
      <trkpt lat="43.53784" lon="6.33204">
        <ele>353</ele>
        <time>2024-09-13T12:36:26Z</time>
      </trkpt>
      <trkpt lat="43.5379" lon="6.33199">
        <ele>353</ele>
        <time>2024-09-13T12:36:35Z</time>
      </trkpt>
      <trkpt lat="43.53794" lon="6.33195">
        <ele>353</ele>
        <time>2024-09-13T12:36:39Z</time>
      </trkpt>
      <trkpt lat="43.53803" lon="6.33179">
        <ele>353</ele>
        <time>2024-09-13T12:36:54Z</time>
      </trkpt>
      <trkpt lat="43.53809" lon="6.33173">
        <ele>353</ele>
        <time>2024-09-13T12:37:00Z</time>
      </trkpt>
      <trkpt lat="43.53812" lon="6.33168">
        <ele>353</ele>
        <time>2024-09-13T12:37:05Z</time>
      </trkpt>
      <trkpt lat="43.53822" lon="6.33157">
        <ele>354</ele>
        <time>2024-09-13T12:37:19Z</time>
      </trkpt>
      <trkpt lat="43.53824" lon="6.33154">
        <ele>354</ele>
        <time>2024-09-13T12:37:35Z</time>
      </trkpt>
      <trkpt lat="43.53828" lon="6.33154">
        <ele>354</ele>
        <time>2024-09-13T12:37:55Z</time>
      </trkpt>
      <trkpt lat="43.53833" lon="6.33155">
        <ele>359</ele>
        <time>2024-09-13T12:40:38Z</time>
      </trkpt>
      <trkpt lat="43.53842" lon="6.33146">
        <ele>362</ele>
        <time>2024-09-13T12:40:51Z</time>
      </trkpt>
      <trkpt lat="43.53843" lon="6.33131">
        <ele>361</ele>
        <time>2024-09-13T12:41:13Z</time>
      </trkpt>
      <trkpt lat="43.53841" lon="6.33125">
        <ele>360</ele>
        <time>2024-09-13T12:41:17Z</time>
      </trkpt>
      <trkpt lat="43.53838" lon="6.33108">
        <ele>359</ele>
        <time>2024-09-13T12:41:30Z</time>
      </trkpt>
      <trkpt lat="43.53836" lon="6.33102">
        <ele>359</ele>
        <time>2024-09-13T12:41:35Z</time>
      </trkpt>
      <trkpt lat="43.53834" lon="6.33095">
        <ele>359</ele>
        <time>2024-09-13T12:41:41Z</time>
      </trkpt>
      <trkpt lat="43.53833" lon="6.33088">
        <ele>360</ele>
        <time>2024-09-13T12:41:46Z</time>
      </trkpt>
      <trkpt lat="43.53831" lon="6.3307">
        <ele>360</ele>
        <time>2024-09-13T12:42:00Z</time>
      </trkpt>
      <trkpt lat="43.53829" lon="6.33065">
        <ele>360</ele>
        <time>2024-09-13T12:42:06Z</time>
      </trkpt>
      <trkpt lat="43.53823" lon="6.33049">
        <ele>359</ele>
        <time>2024-09-13T12:42:19Z</time>
      </trkpt>
      <trkpt lat="43.5382" lon="6.33044">
        <ele>359</ele>
        <time>2024-09-13T12:42:23Z</time>
      </trkpt>
      <trkpt lat="43.53816" lon="6.33039">
        <ele>360</ele>
        <time>2024-09-13T12:42:29Z</time>
      </trkpt>
      <trkpt lat="43.53814" lon="6.33035">
        <ele>360</ele>
        <time>2024-09-13T12:42:33Z</time>
      </trkpt>
      <trkpt lat="43.53813" lon="6.3303">
        <ele>360</ele>
        <time>2024-09-13T12:42:37Z</time>
      </trkpt>
      <trkpt lat="43.5381" lon="6.33025">
        <ele>360</ele>
        <time>2024-09-13T12:42:43Z</time>
      </trkpt>
      <trkpt lat="43.53809" lon="6.3302">
        <ele>361</ele>
        <time>2024-09-13T12:42:47Z</time>
      </trkpt>
      <trkpt lat="43.53806" lon="6.33012">
        <ele>361</ele>
        <time>2024-09-13T12:42:55Z</time>
      </trkpt>
      <trkpt lat="43.53804" lon="6.33007">
        <ele>361</ele>
        <time>2024-09-13T12:42:59Z</time>
      </trkpt>
      <trkpt lat="43.53796" lon="6.32993">
        <ele>361</ele>
        <time>2024-09-13T12:43:15Z</time>
      </trkpt>
      <trkpt lat="43.53795" lon="6.32989">
        <ele>361</ele>
        <time>2024-09-13T12:43:19Z</time>
      </trkpt>
      <trkpt lat="43.53786" lon="6.32967">
        <ele>359</ele>
        <time>2024-09-13T12:43:41Z</time>
      </trkpt>
      <trkpt lat="43.53782" lon="6.32954">
        <ele>360</ele>
        <time>2024-09-13T12:43:54Z</time>
      </trkpt>
      <trkpt lat="43.5378" lon="6.3295">
        <ele>360</ele>
        <time>2024-09-13T12:44:00Z</time>
      </trkpt>
      <trkpt lat="43.53778" lon="6.32945">
        <ele>359</ele>
        <time>2024-09-13T12:44:08Z</time>
      </trkpt>
      <trkpt lat="43.53776" lon="6.32941">
        <ele>359</ele>
        <time>2024-09-13T12:44:12Z</time>
      </trkpt>
      <trkpt lat="43.53772" lon="6.32934">
        <ele>360</ele>
        <time>2024-09-13T12:44:25Z</time>
      </trkpt>
      <trkpt lat="43.53769" lon="6.32933">
        <ele>361</ele>
        <time>2024-09-13T12:44:31Z</time>
      </trkpt>
      <trkpt lat="43.53766" lon="6.32931">
        <ele>361</ele>
        <time>2024-09-13T12:44:35Z</time>
      </trkpt>
      <trkpt lat="43.53762" lon="6.32929">
        <ele>362</ele>
        <time>2024-09-13T12:44:41Z</time>
      </trkpt>
      <trkpt lat="43.5376" lon="6.32924">
        <ele>362</ele>
        <time>2024-09-13T12:44:47Z</time>
      </trkpt>
      <trkpt lat="43.53761" lon="6.32919">
        <ele>363</ele>
        <time>2024-09-13T12:44:52Z</time>
      </trkpt>
      <trkpt lat="43.53763" lon="6.32915">
        <ele>363</ele>
        <time>2024-09-13T12:44:58Z</time>
      </trkpt>
      <trkpt lat="43.53771" lon="6.3291">
        <ele>362</ele>
        <time>2024-09-13T12:45:16Z</time>
      </trkpt>
      <trkpt lat="43.53773" lon="6.32905">
        <ele>361</ele>
        <time>2024-09-13T12:45:27Z</time>
      </trkpt>
      <trkpt lat="43.53773" lon="6.32899">
        <ele>360</ele>
        <time>2024-09-13T12:45:35Z</time>
      </trkpt>
      <trkpt lat="43.53771" lon="6.32893">
        <ele>359</ele>
        <time>2024-09-13T12:45:42Z</time>
      </trkpt>
      <trkpt lat="43.53768" lon="6.32886">
        <ele>358</ele>
        <time>2024-09-13T12:45:48Z</time>
      </trkpt>
      <trkpt lat="43.53759" lon="6.32876">
        <ele>356</ele>
        <time>2024-09-13T12:45:59Z</time>
      </trkpt>
      <trkpt lat="43.53757" lon="6.32872">
        <ele>356</ele>
        <time>2024-09-13T12:46:02Z</time>
      </trkpt>
      <trkpt lat="43.53753" lon="6.32868">
        <ele>355</ele>
        <time>2024-09-13T12:46:06Z</time>
      </trkpt>
      <trkpt lat="43.53749" lon="6.32865">
        <ele>355</ele>
        <time>2024-09-13T12:46:11Z</time>
      </trkpt>
      <trkpt lat="43.53736" lon="6.3285">
        <ele>352</ele>
        <time>2024-09-13T12:46:29Z</time>
      </trkpt>
      <trkpt lat="43.53727" lon="6.32838">
        <ele>350</ele>
        <time>2024-09-13T12:46:41Z</time>
      </trkpt>
      <trkpt lat="43.53718" lon="6.32811">
        <ele>350</ele>
        <time>2024-09-13T12:47:02Z</time>
      </trkpt>
      <trkpt lat="43.53718" lon="6.32805">
        <ele>351</ele>
        <time>2024-09-13T12:47:06Z</time>
      </trkpt>
      <trkpt lat="43.53714" lon="6.32793">
        <ele>350</ele>
        <time>2024-09-13T12:47:15Z</time>
      </trkpt>
      <trkpt lat="43.53713" lon="6.32788">
        <ele>349</ele>
        <time>2024-09-13T12:47:19Z</time>
      </trkpt>
      <trkpt lat="43.5371" lon="6.32784">
        <ele>349</ele>
        <time>2024-09-13T12:47:25Z</time>
      </trkpt>
      <trkpt lat="43.53708" lon="6.32778">
        <ele>349</ele>
        <time>2024-09-13T12:47:30Z</time>
      </trkpt>
      <trkpt lat="43.53706" lon="6.32766">
        <ele>349</ele>
        <time>2024-09-13T12:47:40Z</time>
      </trkpt>
      <trkpt lat="43.53698" lon="6.32743">
        <ele>351</ele>
        <time>2024-09-13T12:48:01Z</time>
      </trkpt>
      <trkpt lat="43.53696" lon="6.32733">
        <ele>352</ele>
        <time>2024-09-13T12:48:09Z</time>
      </trkpt>
      <trkpt lat="43.53693" lon="6.32724">
        <ele>351</ele>
        <time>2024-09-13T12:48:18Z</time>
      </trkpt>
      <trkpt lat="43.53689" lon="6.32706">
        <ele>351</ele>
        <time>2024-09-13T12:48:31Z</time>
      </trkpt>
      <trkpt lat="43.53686" lon="6.32701">
        <ele>351</ele>
        <time>2024-09-13T12:48:35Z</time>
      </trkpt>
      <trkpt lat="43.53685" lon="6.32691">
        <ele>352</ele>
        <time>2024-09-13T12:48:43Z</time>
      </trkpt>
      <trkpt lat="43.53684" lon="6.32687">
        <ele>352</ele>
        <time>2024-09-13T12:48:47Z</time>
      </trkpt>
      <trkpt lat="43.53684" lon="6.32681">
        <ele>352</ele>
        <time>2024-09-13T12:48:52Z</time>
      </trkpt>
      <trkpt lat="43.53682" lon="6.32668">
        <ele>352</ele>
        <time>2024-09-13T12:49:03Z</time>
      </trkpt>
      <trkpt lat="43.53681" lon="6.32662">
        <ele>353</ele>
        <time>2024-09-13T12:49:07Z</time>
      </trkpt>
      <trkpt lat="43.5368" lon="6.32657">
        <ele>353</ele>
        <time>2024-09-13T12:49:11Z</time>
      </trkpt>
      <trkpt lat="43.53679" lon="6.3265">
        <ele>354</ele>
        <time>2024-09-13T12:49:17Z</time>
      </trkpt>
      <trkpt lat="43.53676" lon="6.3264">
        <ele>354</ele>
        <time>2024-09-13T12:49:27Z</time>
      </trkpt>
      <trkpt lat="43.53675" lon="6.32636">
        <ele>354</ele>
        <time>2024-09-13T12:49:31Z</time>
      </trkpt>
      <trkpt lat="43.53672" lon="6.32625">
        <ele>355</ele>
        <time>2024-09-13T12:49:40Z</time>
      </trkpt>
      <trkpt lat="43.53671" lon="6.32618">
        <ele>355</ele>
        <time>2024-09-13T12:49:45Z</time>
      </trkpt>
      <trkpt lat="43.53668" lon="6.32598">
        <ele>358</ele>
        <time>2024-09-13T12:50:01Z</time>
      </trkpt>
      <trkpt lat="43.53664" lon="6.32556">
        <ele>358</ele>
        <time>2024-09-13T12:50:30Z</time>
      </trkpt>
      <trkpt lat="43.53658" lon="6.3254">
        <ele>356</ele>
        <time>2024-09-13T12:50:44Z</time>
      </trkpt>
      <trkpt lat="43.53653" lon="6.32534">
        <ele>356</ele>
        <time>2024-09-13T12:50:51Z</time>
      </trkpt>
      <trkpt lat="43.53649" lon="6.3253">
        <ele>356</ele>
        <time>2024-09-13T12:50:56Z</time>
      </trkpt>
      <trkpt lat="43.53644" lon="6.32528">
        <ele>356</ele>
        <time>2024-09-13T12:51:02Z</time>
      </trkpt>
      <trkpt lat="43.5364" lon="6.32526">
        <ele>356</ele>
        <time>2024-09-13T12:51:06Z</time>
      </trkpt>
      <trkpt lat="43.53637" lon="6.32522">
        <ele>356</ele>
        <time>2024-09-13T12:51:12Z</time>
      </trkpt>
      <trkpt lat="43.53634" lon="6.32519">
        <ele>356</ele>
        <time>2024-09-13T12:51:16Z</time>
      </trkpt>
      <trkpt lat="43.53622" lon="6.32513">
        <ele>356</ele>
        <time>2024-09-13T12:51:30Z</time>
      </trkpt>
      <trkpt lat="43.53613" lon="6.3251">
        <ele>356</ele>
        <time>2024-09-13T12:51:40Z</time>
      </trkpt>
      <trkpt lat="43.53587" lon="6.32494">
        <ele>356</ele>
        <time>2024-09-13T12:52:09Z</time>
      </trkpt>
      <trkpt lat="43.53583" lon="6.3249">
        <ele>357</ele>
        <time>2024-09-13T12:52:14Z</time>
      </trkpt>
      <trkpt lat="43.53574" lon="6.32487">
        <ele>357</ele>
        <time>2024-09-13T12:52:22Z</time>
      </trkpt>
      <trkpt lat="43.5357" lon="6.32486">
        <ele>357</ele>
        <time>2024-09-13T12:52:26Z</time>
      </trkpt>
      <trkpt lat="43.53566" lon="6.32482">
        <ele>357</ele>
        <time>2024-09-13T12:52:32Z</time>
      </trkpt>
      <trkpt lat="43.53559" lon="6.32481">
        <ele>357</ele>
        <time>2024-09-13T12:52:40Z</time>
      </trkpt>
      <trkpt lat="43.5355" lon="6.32471">
        <ele>356</ele>
        <time>2024-09-13T12:52:52Z</time>
      </trkpt>
      <trkpt lat="43.53547" lon="6.32469">
        <ele>356</ele>
        <time>2024-09-13T12:52:56Z</time>
      </trkpt>
      <trkpt lat="43.53531" lon="6.3246">
        <ele>356</ele>
        <time>2024-09-13T12:53:15Z</time>
      </trkpt>
      <trkpt lat="43.53527" lon="6.32457">
        <ele>356</ele>
        <time>2024-09-13T12:53:21Z</time>
      </trkpt>
      <trkpt lat="43.53524" lon="6.32454">
        <ele>355</ele>
        <time>2024-09-13T12:53:25Z</time>
      </trkpt>
      <trkpt lat="43.53497" lon="6.32445">
        <ele>354</ele>
        <time>2024-09-13T12:53:57Z</time>
      </trkpt>
      <trkpt lat="43.53481" lon="6.32433">
        <ele>355</ele>
        <time>2024-09-13T12:54:17Z</time>
      </trkpt>
      <trkpt lat="43.53479" lon="6.3243">
        <ele>356</ele>
        <time>2024-09-13T12:54:21Z</time>
      </trkpt>
      <trkpt lat="43.53477" lon="6.32424">
        <ele>357</ele>
        <time>2024-09-13T12:54:26Z</time>
      </trkpt>
      <trkpt lat="43.53474" lon="6.32421">
        <ele>357</ele>
        <time>2024-09-13T12:54:30Z</time>
      </trkpt>
      <trkpt lat="43.53469" lon="6.32411">
        <ele>357</ele>
        <time>2024-09-13T12:54:39Z</time>
      </trkpt>
      <trkpt lat="43.5346" lon="6.324">
        <ele>356</ele>
        <time>2024-09-13T12:54:52Z</time>
      </trkpt>
      <trkpt lat="43.53451" lon="6.32395">
        <ele>355</ele>
        <time>2024-09-13T12:55:02Z</time>
      </trkpt>
      <trkpt lat="43.53439" lon="6.32376">
        <ele>355</ele>
        <time>2024-09-13T12:55:21Z</time>
      </trkpt>
      <trkpt lat="43.53422" lon="6.32357">
        <ele>357</ele>
        <time>2024-09-13T12:55:45Z</time>
      </trkpt>
      <trkpt lat="43.5342" lon="6.3235">
        <ele>358</ele>
        <time>2024-09-13T12:55:51Z</time>
      </trkpt>
      <trkpt lat="43.53415" lon="6.32345">
        <ele>358</ele>
        <time>2024-09-13T12:55:57Z</time>
      </trkpt>
      <trkpt lat="43.53412" lon="6.3234">
        <ele>358</ele>
        <time>2024-09-13T12:56:02Z</time>
      </trkpt>
      <trkpt lat="43.53408" lon="6.32331">
        <ele>358</ele>
        <time>2024-09-13T12:56:10Z</time>
      </trkpt>
      <trkpt lat="43.53405" lon="6.32327">
        <ele>359</ele>
        <time>2024-09-13T12:56:14Z</time>
      </trkpt>
      <trkpt lat="43.53399" lon="6.32321">
        <ele>359</ele>
        <time>2024-09-13T12:56:22Z</time>
      </trkpt>
      <trkpt lat="43.53385" lon="6.32325">
        <ele>360</ele>
        <time>2024-09-13T12:56:40Z</time>
      </trkpt>
      <trkpt lat="43.53379" lon="6.32334">
        <ele>362</ele>
        <time>2024-09-13T12:56:50Z</time>
      </trkpt>
      <trkpt lat="43.53376" lon="6.32338">
        <ele>363</ele>
        <time>2024-09-13T12:56:55Z</time>
      </trkpt>
      <trkpt lat="43.53372" lon="6.32341">
        <ele>363</ele>
        <time>2024-09-13T12:56:59Z</time>
      </trkpt>
      <trkpt lat="43.53364" lon="6.32348">
        <ele>362</ele>
        <time>2024-09-13T12:57:09Z</time>
      </trkpt>
      <trkpt lat="43.53352" lon="6.32362">
        <ele>361</ele>
        <time>2024-09-13T12:57:24Z</time>
      </trkpt>
      <trkpt lat="43.53345" lon="6.32367">
        <ele>362</ele>
        <time>2024-09-13T12:57:35Z</time>
      </trkpt>
      <trkpt lat="43.53342" lon="6.32369">
        <ele>362</ele>
        <time>2024-09-13T12:57:39Z</time>
      </trkpt>
      <trkpt lat="43.53341" lon="6.32374">
        <ele>361</ele>
        <time>2024-09-13T12:57:43Z</time>
      </trkpt>
      <trkpt lat="43.53338" lon="6.32379">
        <ele>362</ele>
        <time>2024-09-13T12:57:48Z</time>
      </trkpt>
      <trkpt lat="43.53333" lon="6.3239">
        <ele>361</ele>
        <time>2024-09-13T12:58:07Z</time>
      </trkpt>
      <trkpt lat="43.53333" lon="6.32396">
        <ele>360</ele>
        <time>2024-09-13T12:58:14Z</time>
      </trkpt>
      <trkpt lat="43.53325" lon="6.32403">
        <ele>358</ele>
        <time>2024-09-13T12:58:50Z</time>
      </trkpt>
      <trkpt lat="43.53322" lon="6.32405">
        <ele>357</ele>
        <time>2024-09-13T12:58:54Z</time>
      </trkpt>
      <trkpt lat="43.5332" lon="6.32409">
        <ele>357</ele>
        <time>2024-09-13T12:59:01Z</time>
      </trkpt>
      <trkpt lat="43.53319" lon="6.32413">
        <ele>357</ele>
        <time>2024-09-13T12:59:22Z</time>
      </trkpt>
      <trkpt lat="43.53317" lon="6.32416">
        <ele>357</ele>
        <time>2024-09-13T12:59:42Z</time>
      </trkpt>
      <trkpt lat="43.53322" lon="6.32417">
        <ele>358</ele>
        <time>2024-09-13T13:00:02Z</time>
      </trkpt>
      <trkpt lat="43.53328" lon="6.32427">
        <ele>358</ele>
        <time>2024-09-13T13:00:27Z</time>
      </trkpt>
      <trkpt lat="43.53331" lon="6.3243">
        <ele>358</ele>
        <time>2024-09-13T13:00:33Z</time>
      </trkpt>
      <trkpt lat="43.53336" lon="6.32434">
        <ele>357</ele>
        <time>2024-09-13T13:00:41Z</time>
      </trkpt>
      <trkpt lat="43.53339" lon="6.32438">
        <ele>357</ele>
        <time>2024-09-13T13:00:47Z</time>
      </trkpt>
      <trkpt lat="43.53341" lon="6.32442">
        <ele>357</ele>
        <time>2024-09-13T13:00:55Z</time>
      </trkpt>
      <trkpt lat="43.53348" lon="6.32451">
        <ele>355</ele>
        <time>2024-09-13T13:01:06Z</time>
      </trkpt>
      <trkpt lat="43.53351" lon="6.32462">
        <ele>354</ele>
        <time>2024-09-13T13:01:18Z</time>
      </trkpt>
      <trkpt lat="43.53351" lon="6.32478">
        <ele>353</ele>
        <time>2024-09-13T13:01:35Z</time>
      </trkpt>
      <trkpt lat="43.53349" lon="6.32485">
        <ele>351</ele>
        <time>2024-09-13T13:01:41Z</time>
      </trkpt>
      <trkpt lat="43.53346" lon="6.3249">
        <ele>351</ele>
        <time>2024-09-13T13:01:47Z</time>
      </trkpt>
      <trkpt lat="43.53339" lon="6.32505">
        <ele>352</ele>
        <time>2024-09-13T13:02:00Z</time>
      </trkpt>
      <trkpt lat="43.53332" lon="6.32514">
        <ele>351</ele>
        <time>2024-09-13T13:02:11Z</time>
      </trkpt>
      <trkpt lat="43.53328" lon="6.32518">
        <ele>350</ele>
        <time>2024-09-13T13:02:18Z</time>
      </trkpt>
      <trkpt lat="43.53325" lon="6.32522">
        <ele>351</ele>
        <time>2024-09-13T13:02:22Z</time>
      </trkpt>
      <trkpt lat="43.53324" lon="6.3253">
        <ele>350</ele>
        <time>2024-09-13T13:02:30Z</time>
      </trkpt>
      <trkpt lat="43.53322" lon="6.32535">
        <ele>349</ele>
        <time>2024-09-13T13:02:34Z</time>
      </trkpt>
      <trkpt lat="43.53317" lon="6.32543">
        <ele>350</ele>
        <time>2024-09-13T13:02:45Z</time>
      </trkpt>
      <trkpt lat="43.53314" lon="6.32549">
        <ele>350</ele>
        <time>2024-09-13T13:02:50Z</time>
      </trkpt>
      <trkpt lat="43.53312" lon="6.32553">
        <ele>351</ele>
        <time>2024-09-13T13:02:54Z</time>
      </trkpt>
      <trkpt lat="43.53311" lon="6.32556">
        <ele>351</ele>
        <time>2024-09-13T13:03:12Z</time>
      </trkpt>
      <trkpt lat="43.53309" lon="6.32559">
        <ele>350</ele>
        <time>2024-09-13T13:03:28Z</time>
      </trkpt>
      <trkpt lat="43.53306" lon="6.32558">
        <ele>349</ele>
        <time>2024-09-13T13:03:34Z</time>
      </trkpt>
      <trkpt lat="43.53304" lon="6.32558">
        <ele>351</ele>
        <time>2024-09-13T13:03:52Z</time>
      </trkpt>
      <trkpt lat="43.53302" lon="6.32557">
        <ele>351</ele>
        <time>2024-09-13T13:03:56Z</time>
      </trkpt>
      <trkpt lat="43.53303" lon="6.32555">
        <ele>351</ele>
        <time>2024-09-13T13:04:00Z</time>
      </trkpt>
      <trkpt lat="43.53301" lon="6.32554">
        <ele>353</ele>
        <time>2024-09-13T13:04:36Z</time>
      </trkpt>
      <trkpt lat="43.533" lon="6.32558">
        <ele>352</ele>
        <time>2024-09-13T13:05:30Z</time>
      </trkpt>
      <trkpt lat="43.53299" lon="6.32555">
        <ele>353</ele>
        <time>2024-09-13T13:05:49Z</time>
      </trkpt>
      <trkpt lat="43.53295" lon="6.32556">
        <ele>351</ele>
        <time>2024-09-13T13:06:05Z</time>
      </trkpt>
      <trkpt lat="43.53292" lon="6.32559">
        <ele>347</ele>
        <time>2024-09-13T13:07:22Z</time>
      </trkpt>
      <trkpt lat="43.53287" lon="6.32561">
        <ele>347</ele>
        <time>2024-09-13T13:07:27Z</time>
      </trkpt>
      <trkpt lat="43.53284" lon="6.32562">
        <ele>348</ele>
        <time>2024-09-13T13:07:31Z</time>
      </trkpt>
      <trkpt lat="43.5328" lon="6.32564">
        <ele>349</ele>
        <time>2024-09-13T13:07:37Z</time>
      </trkpt>
      <trkpt lat="43.53276" lon="6.32568">
        <ele>348</ele>
        <time>2024-09-13T13:07:44Z</time>
      </trkpt>
      <trkpt lat="43.53272" lon="6.32568">
        <ele>347</ele>
        <time>2024-09-13T13:07:48Z</time>
      </trkpt>
      <trkpt lat="43.53269" lon="6.32571">
        <ele>348</ele>
        <time>2024-09-13T13:07:52Z</time>
      </trkpt>
      <trkpt lat="43.53261" lon="6.32575">
        <ele>349</ele>
        <time>2024-09-13T13:08:02Z</time>
      </trkpt>
      <trkpt lat="43.53253" lon="6.32579">
        <ele>349</ele>
        <time>2024-09-13T13:08:13Z</time>
      </trkpt>
      <trkpt lat="43.53249" lon="6.32577">
        <ele>349</ele>
        <time>2024-09-13T13:08:23Z</time>
      </trkpt>
      <trkpt lat="43.53246" lon="6.3258">
        <ele>349</ele>
        <time>2024-09-13T13:08:27Z</time>
      </trkpt>
      <trkpt lat="43.53247" lon="6.32583">
        <ele>349</ele>
        <time>2024-09-13T13:08:45Z</time>
      </trkpt>
      <trkpt lat="43.53244" lon="6.32584">
        <ele>349</ele>
        <time>2024-09-13T13:08:53Z</time>
      </trkpt>
      <trkpt lat="43.53246" lon="6.32587">
        <ele>349</ele>
        <time>2024-09-13T13:09:04Z</time>
      </trkpt>
      <trkpt lat="43.53249" lon="6.32589">
        <ele>349</ele>
        <time>2024-09-13T13:10:00Z</time>
      </trkpt>
      <trkpt lat="43.53249" lon="6.32587">
        <ele>348</ele>
        <time>2024-09-13T13:10:26Z</time>
      </trkpt>
      <trkpt lat="43.53244" lon="6.32586">
        <ele>348</ele>
        <time>2024-09-13T13:10:32Z</time>
      </trkpt>
      <trkpt lat="43.53242" lon="6.32586">
        <ele>348</ele>
        <time>2024-09-13T13:10:34Z</time>
      </trkpt>
      <trkpt lat="43.5324" lon="6.32585">
        <ele>348</ele>
        <time>2024-09-13T13:10:38Z</time>
      </trkpt>
      <trkpt lat="43.53237" lon="6.32586">
        <ele>349</ele>
        <time>2024-09-13T13:10:44Z</time>
      </trkpt>
      <trkpt lat="43.53235" lon="6.32593">
        <ele>351</ele>
        <time>2024-09-13T13:10:50Z</time>
      </trkpt>
      <trkpt lat="43.53234" lon="6.32596">
        <ele>351</ele>
        <time>2024-09-13T13:10:54Z</time>
      </trkpt>
      <trkpt lat="43.53231" lon="6.32595">
        <ele>350</ele>
        <time>2024-09-13T13:11:02Z</time>
      </trkpt>
      <trkpt lat="43.53227" lon="6.32593">
        <ele>350</ele>
        <time>2024-09-13T13:11:28Z</time>
      </trkpt>
      <trkpt lat="43.53224" lon="6.32597">
        <ele>350</ele>
        <time>2024-09-13T13:11:38Z</time>
      </trkpt>
      <trkpt lat="43.53224" lon="6.32597">
        <ele>344</ele>
        <time>2024-09-13T13:13:30Z</time>
      </trkpt>
      <trkpt lat="43.53223" lon="6.32593">
        <ele>343</ele>
        <time>2024-09-13T13:13:37Z</time>
      </trkpt>
      <trkpt lat="43.53219" lon="6.3259">
        <ele>342</ele>
        <time>2024-09-13T13:13:43Z</time>
      </trkpt>
      <trkpt lat="43.53217" lon="6.32586">
        <ele>343</ele>
        <time>2024-09-13T13:13:49Z</time>
      </trkpt>
      <trkpt lat="43.53212" lon="6.32575">
        <ele>343</ele>
        <time>2024-09-13T13:14:13Z</time>
      </trkpt>
      <trkpt lat="43.53204" lon="6.32574">
        <ele>346</ele>
        <time>2024-09-13T13:14:32Z</time>
      </trkpt>
      <trkpt lat="43.532" lon="6.3257">
        <ele>347</ele>
        <time>2024-09-13T13:14:44Z</time>
      </trkpt>
      <trkpt lat="43.53196" lon="6.32566">
        <ele>349</ele>
        <time>2024-09-13T13:14:58Z</time>
      </trkpt>
      <trkpt lat="43.53191" lon="6.32562">
        <ele>349</ele>
        <time>2024-09-13T13:15:05Z</time>
      </trkpt>
      <trkpt lat="43.53187" lon="6.32556">
        <ele>348</ele>
        <time>2024-09-13T13:15:11Z</time>
      </trkpt>
      <trkpt lat="43.53183" lon="6.32552">
        <ele>347</ele>
        <time>2024-09-13T13:15:19Z</time>
      </trkpt>
      <trkpt lat="43.53176" lon="6.3255">
        <ele>348</ele>
        <time>2024-09-13T13:15:32Z</time>
      </trkpt>
      <trkpt lat="43.53171" lon="6.32548">
        <ele>348</ele>
        <time>2024-09-13T13:15:38Z</time>
      </trkpt>
      <trkpt lat="43.53157" lon="6.32547">
        <ele>351</ele>
        <time>2024-09-13T13:15:54Z</time>
      </trkpt>
      <trkpt lat="43.53154" lon="6.32543">
        <ele>351</ele>
        <time>2024-09-13T13:16:01Z</time>
      </trkpt>
      <trkpt lat="43.53152" lon="6.32537">
        <ele>352</ele>
        <time>2024-09-13T13:16:07Z</time>
      </trkpt>
      <trkpt lat="43.53144" lon="6.32529">
        <ele>354</ele>
        <time>2024-09-13T13:16:15Z</time>
      </trkpt>
      <trkpt lat="43.53141" lon="6.32528">
        <ele>354</ele>
        <time>2024-09-13T13:16:21Z</time>
      </trkpt>
      <trkpt lat="43.53137" lon="6.3253">
        <ele>355</ele>
        <time>2024-09-13T13:16:25Z</time>
      </trkpt>
      <trkpt lat="43.53133" lon="6.32534">
        <ele>356</ele>
        <time>2024-09-13T13:16:30Z</time>
      </trkpt>
      <trkpt lat="43.53123" lon="6.32538">
        <ele>358</ele>
        <time>2024-09-13T13:16:42Z</time>
      </trkpt>
      <trkpt lat="43.53108" lon="6.32551">
        <ele>358</ele>
        <time>2024-09-13T13:17:01Z</time>
      </trkpt>
      <trkpt lat="43.53104" lon="6.32552">
        <ele>357</ele>
        <time>2024-09-13T13:17:05Z</time>
      </trkpt>
      <trkpt lat="43.53101" lon="6.32554">
        <ele>357</ele>
        <time>2024-09-13T13:17:11Z</time>
      </trkpt>
      <trkpt lat="43.53093" lon="6.32558">
        <ele>357</ele>
        <time>2024-09-13T13:17:19Z</time>
      </trkpt>
      <trkpt lat="43.53089" lon="6.32562">
        <ele>358</ele>
        <time>2024-09-13T13:17:24Z</time>
      </trkpt>
      <trkpt lat="43.53083" lon="6.32568">
        <ele>358</ele>
        <time>2024-09-13T13:17:32Z</time>
      </trkpt>
      <trkpt lat="43.5308" lon="6.32573">
        <ele>358</ele>
        <time>2024-09-13T13:17:38Z</time>
      </trkpt>
      <trkpt lat="43.53078" lon="6.32579">
        <ele>358</ele>
        <time>2024-09-13T13:17:43Z</time>
      </trkpt>
      <trkpt lat="43.5307" lon="6.3259">
        <ele>356</ele>
        <time>2024-09-13T13:17:55Z</time>
      </trkpt>
      <trkpt lat="43.53067" lon="6.32596">
        <ele>356</ele>
        <time>2024-09-13T13:18:02Z</time>
      </trkpt>
      <trkpt lat="43.53058" lon="6.32608">
        <ele>355</ele>
        <time>2024-09-13T13:18:22Z</time>
      </trkpt>
      <trkpt lat="43.53051" lon="6.32618">
        <ele>353</ele>
        <time>2024-09-13T13:18:35Z</time>
      </trkpt>
      <trkpt lat="43.53048" lon="6.32622">
        <ele>354</ele>
        <time>2024-09-13T13:18:41Z</time>
      </trkpt>
      <trkpt lat="43.53038" lon="6.32622">
        <ele>353</ele>
        <time>2024-09-13T13:19:01Z</time>
      </trkpt>
      <trkpt lat="43.53035" lon="6.32618">
        <ele>354</ele>
        <time>2024-09-13T13:19:08Z</time>
      </trkpt>
      <trkpt lat="43.53032" lon="6.32616">
        <ele>353</ele>
        <time>2024-09-13T13:19:12Z</time>
      </trkpt>
      <trkpt lat="43.53028" lon="6.32611">
        <ele>352</ele>
        <time>2024-09-13T13:19:22Z</time>
      </trkpt>
      <trkpt lat="43.53017" lon="6.326">
        <ele>352</ele>
        <time>2024-09-13T13:19:43Z</time>
      </trkpt>
      <trkpt lat="43.53014" lon="6.32594">
        <ele>350</ele>
        <time>2024-09-13T13:19:48Z</time>
      </trkpt>
      <trkpt lat="43.53007" lon="6.32583">
        <ele>349</ele>
        <time>2024-09-13T13:20:00Z</time>
      </trkpt>
      <trkpt lat="43.53004" lon="6.32577">
        <ele>348</ele>
        <time>2024-09-13T13:20:08Z</time>
      </trkpt>
      <trkpt lat="43.52998" lon="6.32575">
        <ele>348</ele>
        <time>2024-09-13T13:20:14Z</time>
      </trkpt>
      <trkpt lat="43.52982" lon="6.32569">
        <ele>347</ele>
        <time>2024-09-13T13:20:32Z</time>
      </trkpt>
      <trkpt lat="43.52979" lon="6.32567">
        <ele>347</ele>
        <time>2024-09-13T13:20:38Z</time>
      </trkpt>
      <trkpt lat="43.5297" lon="6.3257">
        <ele>348</ele>
        <time>2024-09-13T13:20:46Z</time>
      </trkpt>
      <trkpt lat="43.52967" lon="6.32572">
        <ele>348</ele>
        <time>2024-09-13T13:20:50Z</time>
      </trkpt>
      <trkpt lat="43.52964" lon="6.32571">
        <ele>348</ele>
        <time>2024-09-13T13:20:57Z</time>
      </trkpt>
      <trkpt lat="43.52965" lon="6.32567">
        <ele>348</ele>
        <time>2024-09-13T13:21:05Z</time>
      </trkpt>
      <trkpt lat="43.52956" lon="6.32561">
        <ele>346</ele>
        <time>2024-09-13T13:21:21Z</time>
      </trkpt>
      <trkpt lat="43.52953" lon="6.32558">
        <ele>345</ele>
        <time>2024-09-13T13:21:34Z</time>
      </trkpt>
      <trkpt lat="43.5295" lon="6.32554">
        <ele>342</ele>
        <time>2024-09-13T13:22:06Z</time>
      </trkpt>
      <trkpt lat="43.52947" lon="6.3255">
        <ele>342</ele>
        <time>2024-09-13T13:22:15Z</time>
      </trkpt>
      <trkpt lat="43.52944" lon="6.32546">
        <ele>341</ele>
        <time>2024-09-13T13:22:25Z</time>
      </trkpt>
      <trkpt lat="43.5294" lon="6.3254">
        <ele>341</ele>
        <time>2024-09-13T13:22:30Z</time>
      </trkpt>
      <trkpt lat="43.52938" lon="6.32536">
        <ele>341</ele>
        <time>2024-09-13T13:22:34Z</time>
      </trkpt>
      <trkpt lat="43.52936" lon="6.3253">
        <ele>340</ele>
        <time>2024-09-13T13:22:39Z</time>
      </trkpt>
      <trkpt lat="43.52931" lon="6.32521">
        <ele>340</ele>
        <time>2024-09-13T13:22:48Z</time>
      </trkpt>
      <trkpt lat="43.52923" lon="6.32507">
        <ele>338</ele>
        <time>2024-09-13T13:23:00Z</time>
      </trkpt>
      <trkpt lat="43.52911" lon="6.3249">
        <ele>336</ele>
        <time>2024-09-13T13:23:17Z</time>
      </trkpt>
      <trkpt lat="43.52906" lon="6.32484">
        <ele>335</ele>
        <time>2024-09-13T13:23:33Z</time>
      </trkpt>
      <trkpt lat="43.52901" lon="6.32485">
        <ele>334</ele>
        <time>2024-09-13T13:23:46Z</time>
      </trkpt>
      <trkpt lat="43.52899" lon="6.32498">
        <ele>334</ele>
        <time>2024-09-13T13:23:54Z</time>
      </trkpt>
      <trkpt lat="43.52897" lon="6.32504">
        <ele>334</ele>
        <time>2024-09-13T13:23:58Z</time>
      </trkpt>
      <trkpt lat="43.52892" lon="6.32527">
        <ele>335</ele>
        <time>2024-09-13T13:24:13Z</time>
      </trkpt>
      <trkpt lat="43.5289" lon="6.32533">
        <ele>336</ele>
        <time>2024-09-13T13:24:20Z</time>
      </trkpt>
      <trkpt lat="43.52886" lon="6.3256">
        <ele>340</ele>
        <time>2024-09-13T13:24:43Z</time>
      </trkpt>
      <trkpt lat="43.52885" lon="6.32565">
        <ele>340</ele>
        <time>2024-09-13T13:24:47Z</time>
      </trkpt>
      <trkpt lat="43.5288" lon="6.3258">
        <ele>340</ele>
        <time>2024-09-13T13:25:02Z</time>
      </trkpt>
      <trkpt lat="43.52879" lon="6.32597">
        <ele>340</ele>
        <time>2024-09-13T13:25:14Z</time>
      </trkpt>
      <trkpt lat="43.52875" lon="6.32623">
        <ele>340</ele>
        <time>2024-09-13T13:25:35Z</time>
      </trkpt>
      <trkpt lat="43.52874" lon="6.32628">
        <ele>339</ele>
        <time>2024-09-13T13:25:39Z</time>
      </trkpt>
      <trkpt lat="43.52879" lon="6.32665">
        <ele>335</ele>
        <time>2024-09-13T13:26:05Z</time>
      </trkpt>
      <trkpt lat="43.52881" lon="6.32671">
        <ele>335</ele>
        <time>2024-09-13T13:26:11Z</time>
      </trkpt>
      <trkpt lat="43.5288" lon="6.32677">
        <ele>336</ele>
        <time>2024-09-13T13:26:39Z</time>
      </trkpt>
      <trkpt lat="43.52877" lon="6.32681">
        <ele>335</ele>
        <time>2024-09-13T13:26:45Z</time>
      </trkpt>
      <trkpt lat="43.52874" lon="6.3268">
        <ele>335</ele>
        <time>2024-09-13T13:26:53Z</time>
      </trkpt>
      <trkpt lat="43.52868" lon="6.32675">
        <ele>333</ele>
        <time>2024-09-13T13:27:03Z</time>
      </trkpt>
      <trkpt lat="43.52865" lon="6.32674">
        <ele>334</ele>
        <time>2024-09-13T13:27:08Z</time>
      </trkpt>
      <trkpt lat="43.52859" lon="6.32674">
        <ele>336</ele>
        <time>2024-09-13T13:27:15Z</time>
      </trkpt>
      <trkpt lat="43.52856" lon="6.32671">
        <ele>335</ele>
        <time>2024-09-13T13:27:21Z</time>
      </trkpt>
      <trkpt lat="43.52845" lon="6.32668">
        <ele>334</ele>
        <time>2024-09-13T13:27:35Z</time>
      </trkpt>
      <trkpt lat="43.5284" lon="6.32668">
        <ele>334</ele>
        <time>2024-09-13T13:27:42Z</time>
      </trkpt>
      <trkpt lat="43.52837" lon="6.32668">
        <ele>333</ele>
        <time>2024-09-13T13:27:48Z</time>
      </trkpt>
      <trkpt lat="43.52826" lon="6.32665">
        <ele>331</ele>
        <time>2024-09-13T13:28:06Z</time>
      </trkpt>
      <trkpt lat="43.5282" lon="6.32667">
        <ele>329</ele>
        <time>2024-09-13T13:28:15Z</time>
      </trkpt>
      <trkpt lat="43.52817" lon="6.32672">
        <ele>329</ele>
        <time>2024-09-13T13:28:22Z</time>
      </trkpt>
      <trkpt lat="43.52814" lon="6.32678">
        <ele>329</ele>
        <time>2024-09-13T13:28:27Z</time>
      </trkpt>
      <trkpt lat="43.52811" lon="6.32684">
        <ele>330</ele>
        <time>2024-09-13T13:28:33Z</time>
      </trkpt>
      <trkpt lat="43.52805" lon="6.32694">
        <ele>330</ele>
        <time>2024-09-13T13:28:45Z</time>
      </trkpt>
      <trkpt lat="43.52801" lon="6.32698">
        <ele>330</ele>
        <time>2024-09-13T13:28:57Z</time>
      </trkpt>
      <trkpt lat="43.52798" lon="6.32703">
        <ele>330</ele>
        <time>2024-09-13T13:29:01Z</time>
      </trkpt>
      <trkpt lat="43.52797" lon="6.32711">
        <ele>331</ele>
        <time>2024-09-13T13:29:06Z</time>
      </trkpt>
      <trkpt lat="43.52796" lon="6.32718">
        <ele>330</ele>
        <time>2024-09-13T13:29:12Z</time>
      </trkpt>
      <trkpt lat="43.52795" lon="6.32733">
        <ele>328</ele>
        <time>2024-09-13T13:29:26Z</time>
      </trkpt>
      <trkpt lat="43.52794" lon="6.32741">
        <ele>327</ele>
        <time>2024-09-13T13:29:33Z</time>
      </trkpt>
      <trkpt lat="43.52787" lon="6.32757">
        <ele>325</ele>
        <time>2024-09-13T13:29:52Z</time>
      </trkpt>
      <trkpt lat="43.52786" lon="6.32764">
        <ele>326</ele>
        <time>2024-09-13T13:30:00Z</time>
      </trkpt>
      <trkpt lat="43.52785" lon="6.32771">
        <ele>326</ele>
        <time>2024-09-13T13:30:04Z</time>
      </trkpt>
      <trkpt lat="43.52783" lon="6.3278">
        <ele>326</ele>
        <time>2024-09-13T13:30:12Z</time>
      </trkpt>
      <trkpt lat="43.52781" lon="6.32786">
        <ele>325</ele>
        <time>2024-09-13T13:30:17Z</time>
      </trkpt>
      <trkpt lat="43.5278" lon="6.32792">
        <ele>325</ele>
        <time>2024-09-13T13:30:21Z</time>
      </trkpt>
      <trkpt lat="43.52777" lon="6.32799">
        <ele>323</ele>
        <time>2024-09-13T13:30:28Z</time>
      </trkpt>
      <trkpt lat="43.52777" lon="6.32806">
        <ele>323</ele>
        <time>2024-09-13T13:30:36Z</time>
      </trkpt>
      <trkpt lat="43.52776" lon="6.32811">
        <ele>323</ele>
        <time>2024-09-13T13:30:44Z</time>
      </trkpt>
      <trkpt lat="43.52765" lon="6.32824">
        <ele>323</ele>
        <time>2024-09-13T13:30:55Z</time>
      </trkpt>
      <trkpt lat="43.52764" lon="6.32831">
        <ele>322</ele>
        <time>2024-09-13T13:31:00Z</time>
      </trkpt>
      <trkpt lat="43.52757" lon="6.32846">
        <ele>321</ele>
        <time>2024-09-13T13:31:13Z</time>
      </trkpt>
      <trkpt lat="43.52757" lon="6.32853">
        <ele>322</ele>
        <time>2024-09-13T13:31:17Z</time>
      </trkpt>
      <trkpt lat="43.52755" lon="6.32859">
        <ele>323</ele>
        <time>2024-09-13T13:31:21Z</time>
      </trkpt>
      <trkpt lat="43.52754" lon="6.32872">
        <ele>320</ele>
        <time>2024-09-13T13:31:31Z</time>
      </trkpt>
      <trkpt lat="43.52753" lon="6.32881">
        <ele>319</ele>
        <time>2024-09-13T13:31:38Z</time>
      </trkpt>
      <trkpt lat="43.5275" lon="6.32905">
        <ele>320</ele>
        <time>2024-09-13T13:31:55Z</time>
      </trkpt>
      <trkpt lat="43.52745" lon="6.32911">
        <ele>321</ele>
        <time>2024-09-13T13:32:03Z</time>
      </trkpt>
      <trkpt lat="43.52743" lon="6.3292">
        <ele>321</ele>
        <time>2024-09-13T13:32:10Z</time>
      </trkpt>
      <trkpt lat="43.52743" lon="6.32927">
        <ele>321</ele>
        <time>2024-09-13T13:32:16Z</time>
      </trkpt>
      <trkpt lat="43.5274" lon="6.32933">
        <ele>321</ele>
        <time>2024-09-13T13:32:21Z</time>
      </trkpt>
      <trkpt lat="43.52735" lon="6.32936">
        <ele>320</ele>
        <time>2024-09-13T13:32:30Z</time>
      </trkpt>
      <trkpt lat="43.52727" lon="6.32943">
        <ele>320</ele>
        <time>2024-09-13T13:32:40Z</time>
      </trkpt>
      <trkpt lat="43.52724" lon="6.32951">
        <ele>322</ele>
        <time>2024-09-13T13:32:46Z</time>
      </trkpt>
      <trkpt lat="43.5272" lon="6.32955">
        <ele>323</ele>
        <time>2024-09-13T13:32:50Z</time>
      </trkpt>
      <trkpt lat="43.52714" lon="6.32976">
        <ele>324</ele>
        <time>2024-09-13T13:33:04Z</time>
      </trkpt>
      <trkpt lat="43.527" lon="6.33011">
        <ele>326</ele>
        <time>2024-09-13T13:33:34Z</time>
      </trkpt>
      <trkpt lat="43.52693" lon="6.33038">
        <ele>326</ele>
        <time>2024-09-13T13:34:29Z</time>
      </trkpt>
      <trkpt lat="43.52691" lon="6.33044">
        <ele>321</ele>
        <time>2024-09-13T13:35:19Z</time>
      </trkpt>
      <trkpt lat="43.52688" lon="6.33048">
        <ele>320</ele>
        <time>2024-09-13T13:35:28Z</time>
      </trkpt>
      <trkpt lat="43.52683" lon="6.3305">
        <ele>321</ele>
        <time>2024-09-13T13:35:39Z</time>
      </trkpt>
      <trkpt lat="43.5268" lon="6.33049">
        <ele>320</ele>
        <time>2024-09-13T13:35:56Z</time>
      </trkpt>
      <trkpt lat="43.52674" lon="6.33046">
        <ele>319</ele>
        <time>2024-09-13T13:36:06Z</time>
      </trkpt>
      <trkpt lat="43.5267" lon="6.33047">
        <ele>319</ele>
        <time>2024-09-13T13:36:10Z</time>
      </trkpt>
      <trkpt lat="43.52667" lon="6.3305">
        <ele>319</ele>
        <time>2024-09-13T13:36:14Z</time>
      </trkpt>
      <trkpt lat="43.52666" lon="6.33055">
        <ele>319</ele>
        <time>2024-09-13T13:36:19Z</time>
      </trkpt>
      <trkpt lat="43.52666" lon="6.33061">
        <ele>318</ele>
        <time>2024-09-13T13:36:25Z</time>
      </trkpt>
      <trkpt lat="43.52665" lon="6.33069">
        <ele>318</ele>
        <time>2024-09-13T13:36:42Z</time>
      </trkpt>
      <trkpt lat="43.52659" lon="6.33078">
        <ele>320</ele>
        <time>2024-09-13T13:37:08Z</time>
      </trkpt>
      <trkpt lat="43.52653" lon="6.33084">
        <ele>319</ele>
        <time>2024-09-13T13:37:20Z</time>
      </trkpt>
      <trkpt lat="43.52649" lon="6.33087">
        <ele>318</ele>
        <time>2024-09-13T13:37:26Z</time>
      </trkpt>
      <trkpt lat="43.52645" lon="6.3309">
        <ele>319</ele>
        <time>2024-09-13T13:37:31Z</time>
      </trkpt>
      <trkpt lat="43.52642" lon="6.33094">
        <ele>320</ele>
        <time>2024-09-13T13:37:39Z</time>
      </trkpt>
      <trkpt lat="43.5264" lon="6.33099">
        <ele>320</ele>
        <time>2024-09-13T13:37:44Z</time>
      </trkpt>
      <trkpt lat="43.52635" lon="6.33108">
        <ele>321</ele>
        <time>2024-09-13T13:37:54Z</time>
      </trkpt>
      <trkpt lat="43.52631" lon="6.3311">
        <ele>320</ele>
        <time>2024-09-13T13:37:58Z</time>
      </trkpt>
      <trkpt lat="43.52628" lon="6.33109">
        <ele>322</ele>
        <time>2024-09-13T13:38:05Z</time>
      </trkpt>
      <trkpt lat="43.52605" lon="6.33103">
        <ele>325</ele>
        <time>2024-09-13T13:38:38Z</time>
      </trkpt>
      <trkpt lat="43.52601" lon="6.33103">
        <ele>325</ele>
        <time>2024-09-13T13:38:42Z</time>
      </trkpt>
      <trkpt lat="43.52596" lon="6.33103">
        <ele>326</ele>
        <time>2024-09-13T13:38:48Z</time>
      </trkpt>
      <trkpt lat="43.52587" lon="6.33104">
        <ele>327</ele>
        <time>2024-09-13T13:39:01Z</time>
      </trkpt>
      <trkpt lat="43.52583" lon="6.33106">
        <ele>327</ele>
        <time>2024-09-13T13:39:08Z</time>
      </trkpt>
      <trkpt lat="43.52579" lon="6.33109">
        <ele>328</ele>
        <time>2024-09-13T13:39:12Z</time>
      </trkpt>
      <trkpt lat="43.52575" lon="6.3311">
        <ele>329</ele>
        <time>2024-09-13T13:39:17Z</time>
      </trkpt>
      <trkpt lat="43.52569" lon="6.3311">
        <ele>330</ele>
        <time>2024-09-13T13:39:24Z</time>
      </trkpt>
      <trkpt lat="43.52561" lon="6.33114">
        <ele>333</ele>
        <time>2024-09-13T13:39:36Z</time>
      </trkpt>
      <trkpt lat="43.52547" lon="6.33119">
        <ele>335</ele>
        <time>2024-09-13T13:40:02Z</time>
      </trkpt>
      <trkpt lat="43.52543" lon="6.33122">
        <ele>335</ele>
        <time>2024-09-13T13:40:06Z</time>
      </trkpt>
      <trkpt lat="43.5254" lon="6.33126">
        <ele>335</ele>
        <time>2024-09-13T13:40:12Z</time>
      </trkpt>
      <trkpt lat="43.52539" lon="6.33132">
        <ele>335</ele>
        <time>2024-09-13T13:40:16Z</time>
      </trkpt>
      <trkpt lat="43.52538" lon="6.33137">
        <ele>335</ele>
        <time>2024-09-13T13:40:22Z</time>
      </trkpt>
      <trkpt lat="43.52546" lon="6.33157">
        <ele>333</ele>
        <time>2024-09-13T13:40:39Z</time>
      </trkpt>
      <trkpt lat="43.5255" lon="6.33169">
        <ele>334</ele>
        <time>2024-09-13T13:40:50Z</time>
      </trkpt>
      <trkpt lat="43.52551" lon="6.33176">
        <ele>335</ele>
        <time>2024-09-13T13:40:58Z</time>
      </trkpt>
      <trkpt lat="43.5255" lon="6.33182">
        <ele>336</ele>
        <time>2024-09-13T13:41:04Z</time>
      </trkpt>
      <trkpt lat="43.52552" lon="6.33189">
        <ele>338</ele>
        <time>2024-09-13T13:41:10Z</time>
      </trkpt>
      <trkpt lat="43.52551" lon="6.33197">
        <ele>338</ele>
        <time>2024-09-13T13:41:16Z</time>
      </trkpt>
      <trkpt lat="43.52551" lon="6.33206">
        <ele>337</ele>
        <time>2024-09-13T13:41:42Z</time>
      </trkpt>
      <trkpt lat="43.52552" lon="6.33211">
        <ele>336</ele>
        <time>2024-09-13T13:42:28Z</time>
      </trkpt>
      <trkpt lat="43.5255" lon="6.33217">
        <ele>337</ele>
        <time>2024-09-13T13:42:45Z</time>
      </trkpt>
      <trkpt lat="43.52551" lon="6.33222">
        <ele>338</ele>
        <time>2024-09-13T13:43:00Z</time>
      </trkpt>
      <trkpt lat="43.5255" lon="6.33227">
        <ele>338</ele>
        <time>2024-09-13T13:43:09Z</time>
      </trkpt>
      <trkpt lat="43.52549" lon="6.33234">
        <ele>340</ele>
        <time>2024-09-13T13:43:28Z</time>
      </trkpt>
      <trkpt lat="43.5255" lon="6.33264">
        <ele>340</ele>
        <time>2024-09-13T13:43:59Z</time>
      </trkpt>
      <trkpt lat="43.5255" lon="6.33272">
        <ele>341</ele>
        <time>2024-09-13T13:44:05Z</time>
      </trkpt>
      <trkpt lat="43.5255" lon="6.33284">
        <ele>339</ele>
        <time>2024-09-13T13:44:17Z</time>
      </trkpt>
      <trkpt lat="43.52549" lon="6.3329">
        <ele>339</ele>
        <time>2024-09-13T13:44:23Z</time>
      </trkpt>
      <trkpt lat="43.52549" lon="6.33296">
        <ele>339</ele>
        <time>2024-09-13T13:44:28Z</time>
      </trkpt>
      <trkpt lat="43.52549" lon="6.33303">
        <ele>338</ele>
        <time>2024-09-13T13:44:36Z</time>
      </trkpt>
      <trkpt lat="43.52549" lon="6.33311">
        <ele>337</ele>
        <time>2024-09-13T13:44:44Z</time>
      </trkpt>
      <trkpt lat="43.5255" lon="6.33318">
        <ele>335</ele>
        <time>2024-09-13T13:44:49Z</time>
      </trkpt>
      <trkpt lat="43.52554" lon="6.33325">
        <ele>334</ele>
        <time>2024-09-13T13:44:55Z</time>
      </trkpt>
      <trkpt lat="43.52559" lon="6.3333">
        <ele>331</ele>
        <time>2024-09-13T13:45:03Z</time>
      </trkpt>
      <trkpt lat="43.52562" lon="6.33333">
        <ele>331</ele>
        <time>2024-09-13T13:45:07Z</time>
      </trkpt>
      <trkpt lat="43.52571" lon="6.33333">
        <ele>329</ele>
        <time>2024-09-13T13:45:18Z</time>
      </trkpt>
      <trkpt lat="43.52581" lon="6.33332">
        <ele>329</ele>
        <time>2024-09-13T13:45:26Z</time>
      </trkpt>
      <trkpt lat="43.52585" lon="6.33333">
        <ele>330</ele>
        <time>2024-09-13T13:45:32Z</time>
      </trkpt>
      <trkpt lat="43.526" lon="6.33331">
        <ele>332</ele>
        <time>2024-09-13T13:45:47Z</time>
      </trkpt>
      <trkpt lat="43.52605" lon="6.33328">
        <ele>332</ele>
        <time>2024-09-13T13:45:53Z</time>
      </trkpt>
      <trkpt lat="43.5261" lon="6.33327">
        <ele>332</ele>
        <time>2024-09-13T13:45:59Z</time>
      </trkpt>
      <trkpt lat="43.52613" lon="6.33332">
        <ele>331</ele>
        <time>2024-09-13T13:46:14Z</time>
      </trkpt>
      <trkpt lat="43.52614" lon="6.33337">
        <ele>330</ele>
        <time>2024-09-13T13:46:21Z</time>
      </trkpt>
      <trkpt lat="43.52614" lon="6.33341">
        <ele>330</ele>
        <time>2024-09-13T13:46:28Z</time>
      </trkpt>
      <trkpt lat="43.52616" lon="6.33362">
        <ele>331</ele>
        <time>2024-09-13T13:46:50Z</time>
      </trkpt>
      <trkpt lat="43.52617" lon="6.33373">
        <ele>330</ele>
        <time>2024-09-13T13:47:00Z</time>
      </trkpt>
      <trkpt lat="43.52617" lon="6.33381">
        <ele>329</ele>
        <time>2024-09-13T13:47:07Z</time>
      </trkpt>
      <trkpt lat="43.52617" lon="6.33393">
        <ele>328</ele>
        <time>2024-09-13T13:47:14Z</time>
      </trkpt>
      <trkpt lat="43.5262" lon="6.33414">
        <ele>326</ele>
        <time>2024-09-13T13:47:35Z</time>
      </trkpt>
      <trkpt lat="43.52621" lon="6.33419">
        <ele>326</ele>
        <time>2024-09-13T13:47:41Z</time>
      </trkpt>
      <trkpt lat="43.5262" lon="6.33424">
        <ele>326</ele>
        <time>2024-09-13T13:47:48Z</time>
      </trkpt>
      <trkpt lat="43.52619" lon="6.3343">
        <ele>326</ele>
        <time>2024-09-13T13:47:56Z</time>
      </trkpt>
      <trkpt lat="43.52619" lon="6.33436">
        <ele>326</ele>
        <time>2024-09-13T13:48:00Z</time>
      </trkpt>
      <trkpt lat="43.52621" lon="6.33441">
        <ele>325</ele>
        <time>2024-09-13T13:48:04Z</time>
      </trkpt>
      <trkpt lat="43.52621" lon="6.33452">
        <ele>324</ele>
        <time>2024-09-13T13:48:17Z</time>
      </trkpt>
      <trkpt lat="43.52621" lon="6.33458">
        <ele>324</ele>
        <time>2024-09-13T13:48:27Z</time>
      </trkpt>
      <trkpt lat="43.52617" lon="6.33471">
        <ele>324</ele>
        <time>2024-09-13T13:48:57Z</time>
      </trkpt>
      <trkpt lat="43.52618" lon="6.33476">
        <ele>324</ele>
        <time>2024-09-13T13:49:05Z</time>
      </trkpt>
      <trkpt lat="43.52618" lon="6.33482">
        <ele>323</ele>
        <time>2024-09-13T13:49:11Z</time>
      </trkpt>
      <trkpt lat="43.52618" lon="6.33487">
        <ele>323</ele>
        <time>2024-09-13T13:49:17Z</time>
      </trkpt>
      <trkpt lat="43.52618" lon="6.33494">
        <ele>323</ele>
        <time>2024-09-13T13:49:26Z</time>
      </trkpt>
      <trkpt lat="43.52615" lon="6.33501">
        <ele>321</ele>
        <time>2024-09-13T13:49:33Z</time>
      </trkpt>
      <trkpt lat="43.52616" lon="6.33508">
        <ele>321</ele>
        <time>2024-09-13T13:49:39Z</time>
      </trkpt>
      <trkpt lat="43.52615" lon="6.33514">
        <ele>321</ele>
        <time>2024-09-13T13:49:43Z</time>
      </trkpt>
      <trkpt lat="43.52617" lon="6.33521">
        <ele>320</ele>
        <time>2024-09-13T13:49:49Z</time>
      </trkpt>
      <trkpt lat="43.52617" lon="6.33528">
        <ele>321</ele>
        <time>2024-09-13T13:49:54Z</time>
      </trkpt>
      <trkpt lat="43.52617" lon="6.33533">
        <ele>321</ele>
        <time>2024-09-13T13:50:00Z</time>
      </trkpt>
      <trkpt lat="43.52615" lon="6.33539">
        <ele>321</ele>
        <time>2024-09-13T13:50:08Z</time>
      </trkpt>
      <trkpt lat="43.52612" lon="6.33542">
        <ele>320</ele>
        <time>2024-09-13T13:50:13Z</time>
      </trkpt>
      <trkpt lat="43.5261" lon="6.33546">
        <ele>319</ele>
        <time>2024-09-13T13:50:17Z</time>
      </trkpt>
      <trkpt lat="43.52609" lon="6.33554">
        <ele>319</ele>
        <time>2024-09-13T13:50:24Z</time>
      </trkpt>
      <trkpt lat="43.52606" lon="6.33559">
        <ele>318</ele>
        <time>2024-09-13T13:50:31Z</time>
      </trkpt>
      <trkpt lat="43.52604" lon="6.33565">
        <ele>317</ele>
        <time>2024-09-13T13:50:39Z</time>
      </trkpt>
      <trkpt lat="43.52598" lon="6.33574">
        <ele>316</ele>
        <time>2024-09-13T13:50:50Z</time>
      </trkpt>
      <trkpt lat="43.52593" lon="6.33579">
        <ele>318</ele>
        <time>2024-09-13T13:50:56Z</time>
      </trkpt>
      <trkpt lat="43.52589" lon="6.33583">
        <ele>318</ele>
        <time>2024-09-13T13:51:06Z</time>
      </trkpt>
      <trkpt lat="43.52585" lon="6.33588">
        <ele>318</ele>
        <time>2024-09-13T13:51:15Z</time>
      </trkpt>
      <trkpt lat="43.52578" lon="6.33593">
        <ele>320</ele>
        <time>2024-09-13T13:51:23Z</time>
      </trkpt>
      <trkpt lat="43.5257" lon="6.33597">
        <ele>321</ele>
        <time>2024-09-13T13:51:37Z</time>
      </trkpt>
      <trkpt lat="43.52565" lon="6.33602">
        <ele>322</ele>
        <time>2024-09-13T13:51:44Z</time>
      </trkpt>
      <trkpt lat="43.52563" lon="6.33608">
        <ele>321</ele>
        <time>2024-09-13T13:51:48Z</time>
      </trkpt>
      <trkpt lat="43.52558" lon="6.33612">
        <ele>322</ele>
        <time>2024-09-13T13:51:55Z</time>
      </trkpt>
      <trkpt lat="43.52555" lon="6.33616">
        <ele>323</ele>
        <time>2024-09-13T13:52:00Z</time>
      </trkpt>
      <trkpt lat="43.52552" lon="6.33634">
        <ele>322</ele>
        <time>2024-09-13T13:52:18Z</time>
      </trkpt>
      <trkpt lat="43.52551" lon="6.33638">
        <ele>322</ele>
        <time>2024-09-13T13:52:26Z</time>
      </trkpt>
      <trkpt lat="43.52551" lon="6.33645">
        <ele>321</ele>
        <time>2024-09-13T13:52:36Z</time>
      </trkpt>
      <trkpt lat="43.52544" lon="6.33661">
        <ele>322</ele>
        <time>2024-09-13T13:52:56Z</time>
      </trkpt>
      <trkpt lat="43.5253" lon="6.33675">
        <ele>325</ele>
        <time>2024-09-13T13:53:22Z</time>
      </trkpt>
      <trkpt lat="43.52522" lon="6.33681">
        <ele>325</ele>
        <time>2024-09-13T13:53:32Z</time>
      </trkpt>
      <trkpt lat="43.52517" lon="6.33691">
        <ele>324</ele>
        <time>2024-09-13T13:53:54Z</time>
      </trkpt>
      <trkpt lat="43.52517" lon="6.33696">
        <ele>324</ele>
        <time>2024-09-13T13:54:00Z</time>
      </trkpt>
      <trkpt lat="43.52515" lon="6.33708">
        <ele>325</ele>
        <time>2024-09-13T13:54:14Z</time>
      </trkpt>
      <trkpt lat="43.52512" lon="6.33712">
        <ele>325</ele>
        <time>2024-09-13T13:54:18Z</time>
      </trkpt>
      <trkpt lat="43.52511" lon="6.33718">
        <ele>325</ele>
        <time>2024-09-13T13:54:24Z</time>
      </trkpt>
      <trkpt lat="43.52505" lon="6.33726">
        <ele>325</ele>
        <time>2024-09-13T13:54:39Z</time>
      </trkpt>
      <trkpt lat="43.52502" lon="6.33732">
        <ele>325</ele>
        <time>2024-09-13T13:54:45Z</time>
      </trkpt>
      <trkpt lat="43.52498" lon="6.33737">
        <ele>325</ele>
        <time>2024-09-13T13:54:51Z</time>
      </trkpt>
      <trkpt lat="43.52494" lon="6.33741">
        <ele>326</ele>
        <time>2024-09-13T13:54:58Z</time>
      </trkpt>
      <trkpt lat="43.52492" lon="6.33746">
        <ele>327</ele>
        <time>2024-09-13T13:55:06Z</time>
      </trkpt>
      <trkpt lat="43.52485" lon="6.33755">
        <ele>328</ele>
        <time>2024-09-13T13:55:19Z</time>
      </trkpt>
      <trkpt lat="43.52482" lon="6.33759">
        <ele>328</ele>
        <time>2024-09-13T13:55:26Z</time>
      </trkpt>
      <trkpt lat="43.52478" lon="6.33762">
        <ele>329</ele>
        <time>2024-09-13T13:55:34Z</time>
      </trkpt>
      <trkpt lat="43.5247" lon="6.33769">
        <ele>329</ele>
        <time>2024-09-13T13:55:54Z</time>
      </trkpt>
      <trkpt lat="43.52467" lon="6.33775">
        <ele>329</ele>
        <time>2024-09-13T13:56:02Z</time>
      </trkpt>
      <trkpt lat="43.52463" lon="6.33777">
        <ele>329</ele>
        <time>2024-09-13T13:56:06Z</time>
      </trkpt>
      <trkpt lat="43.52455" lon="6.33779">
        <ele>330</ele>
        <time>2024-09-13T13:56:15Z</time>
      </trkpt>
      <trkpt lat="43.52447" lon="6.33787">
        <ele>330</ele>
        <time>2024-09-13T13:56:25Z</time>
      </trkpt>
      <trkpt lat="43.52438" lon="6.3379">
        <ele>331</ele>
        <time>2024-09-13T13:56:39Z</time>
      </trkpt>
      <trkpt lat="43.52435" lon="6.33794">
        <ele>332</ele>
        <time>2024-09-13T13:56:46Z</time>
      </trkpt>
      <trkpt lat="43.52428" lon="6.338">
        <ele>331</ele>
        <time>2024-09-13T13:57:02Z</time>
      </trkpt>
      <trkpt lat="43.5242" lon="6.33804">
        <ele>327</ele>
        <time>2024-09-13T13:57:15Z</time>
      </trkpt>
      <trkpt lat="43.52418" lon="6.3381">
        <ele>325</ele>
        <time>2024-09-13T13:57:21Z</time>
      </trkpt>
      <trkpt lat="43.52416" lon="6.33813">
        <ele>326</ele>
        <time>2024-09-13T13:58:01Z</time>
      </trkpt>
      <trkpt lat="43.52416" lon="6.33818">
        <ele>326</ele>
        <time>2024-09-13T13:59:01Z</time>
      </trkpt>
      <trkpt lat="43.52418" lon="6.33825">
        <ele>324</ele>
        <time>2024-09-13T13:59:18Z</time>
      </trkpt>
      <trkpt lat="43.52416" lon="6.33831">
        <ele>324</ele>
        <time>2024-09-13T13:59:27Z</time>
      </trkpt>
      <trkpt lat="43.52422" lon="6.33846">
        <ele>326</ele>
        <time>2024-09-13T13:59:48Z</time>
      </trkpt>
      <trkpt lat="43.52423" lon="6.3386">
        <ele>326</ele>
        <time>2024-09-13T14:00:03Z</time>
      </trkpt>
      <trkpt lat="43.52427" lon="6.33886">
        <ele>325</ele>
        <time>2024-09-13T14:00:26Z</time>
      </trkpt>
      <trkpt lat="43.52438" lon="6.33899">
        <ele>324</ele>
        <time>2024-09-13T14:00:41Z</time>
      </trkpt>
      <trkpt lat="43.5244" lon="6.33904">
        <ele>324</ele>
        <time>2024-09-13T14:00:45Z</time>
      </trkpt>
      <trkpt lat="43.52448" lon="6.33929">
        <ele>325</ele>
        <time>2024-09-13T14:01:05Z</time>
      </trkpt>
      <trkpt lat="43.52448" lon="6.33936">
        <ele>324</ele>
        <time>2024-09-13T14:01:11Z</time>
      </trkpt>
      <trkpt lat="43.52447" lon="6.33942">
        <ele>324</ele>
        <time>2024-09-13T14:01:20Z</time>
      </trkpt>
      <trkpt lat="43.52448" lon="6.33947">
        <ele>324</ele>
        <time>2024-09-13T14:01:24Z</time>
      </trkpt>
      <trkpt lat="43.52453" lon="6.33957">
        <ele>324</ele>
        <time>2024-09-13T14:01:36Z</time>
      </trkpt>
      <trkpt lat="43.52459" lon="6.33966">
        <ele>323</ele>
        <time>2024-09-13T14:01:48Z</time>
      </trkpt>
      <trkpt lat="43.52466" lon="6.33973">
        <ele>324</ele>
        <time>2024-09-13T14:01:57Z</time>
      </trkpt>
      <trkpt lat="43.52468" lon="6.33977">
        <ele>323</ele>
        <time>2024-09-13T14:02:04Z</time>
      </trkpt>
      <trkpt lat="43.52473" lon="6.33982">
        <ele>322</ele>
        <time>2024-09-13T14:02:10Z</time>
      </trkpt>
      <trkpt lat="43.52486" lon="6.33997">
        <ele>319</ele>
        <time>2024-09-13T14:02:30Z</time>
      </trkpt>
      <trkpt lat="43.52495" lon="6.34013">
        <ele>318</ele>
        <time>2024-09-13T14:02:44Z</time>
      </trkpt>
      <trkpt lat="43.52498" lon="6.34019">
        <ele>319</ele>
        <time>2024-09-13T14:02:50Z</time>
      </trkpt>
      <trkpt lat="43.52516" lon="6.34045">
        <ele>320</ele>
        <time>2024-09-13T14:03:19Z</time>
      </trkpt>
      <trkpt lat="43.52518" lon="6.34054">
        <ele>319</ele>
        <time>2024-09-13T14:03:28Z</time>
      </trkpt>
      <trkpt lat="43.52524" lon="6.34065">
        <ele>319</ele>
        <time>2024-09-13T14:03:39Z</time>
      </trkpt>
      <trkpt lat="43.52526" lon="6.34071">
        <ele>319</ele>
        <time>2024-09-13T14:03:44Z</time>
      </trkpt>
      <trkpt lat="43.52532" lon="6.34083">
        <ele>319</ele>
        <time>2024-09-13T14:03:57Z</time>
      </trkpt>
      <trkpt lat="43.52536" lon="6.3409">
        <ele>318</ele>
        <time>2024-09-13T14:04:03Z</time>
      </trkpt>
      <trkpt lat="43.52536" lon="6.34098">
        <ele>318</ele>
        <time>2024-09-13T14:04:13Z</time>
      </trkpt>
      <trkpt lat="43.52533" lon="6.3411">
        <ele>317</ele>
        <time>2024-09-13T14:04:26Z</time>
      </trkpt>
      <trkpt lat="43.5253" lon="6.34131">
        <ele>315</ele>
        <time>2024-09-13T14:04:49Z</time>
      </trkpt>
      <trkpt lat="43.52528" lon="6.34137">
        <ele>315</ele>
        <time>2024-09-13T14:04:55Z</time>
      </trkpt>
      <trkpt lat="43.52526" lon="6.34142">
        <ele>315</ele>
        <time>2024-09-13T14:05:01Z</time>
      </trkpt>
      <trkpt lat="43.52525" lon="6.34147">
        <ele>315</ele>
        <time>2024-09-13T14:05:05Z</time>
      </trkpt>
      <trkpt lat="43.52522" lon="6.34163">
        <ele>315</ele>
        <time>2024-09-13T14:05:18Z</time>
      </trkpt>
      <trkpt lat="43.52523" lon="6.34181">
        <ele>314</ele>
        <time>2024-09-13T14:05:33Z</time>
      </trkpt>
      <trkpt lat="43.52526" lon="6.34192">
        <ele>315</ele>
        <time>2024-09-13T14:05:41Z</time>
      </trkpt>
      <trkpt lat="43.52525" lon="6.34198">
        <ele>315</ele>
        <time>2024-09-13T14:05:47Z</time>
      </trkpt>
      <trkpt lat="43.52525" lon="6.34203">
        <ele>316</ele>
        <time>2024-09-13T14:05:53Z</time>
      </trkpt>
      <trkpt lat="43.52527" lon="6.34231">
        <ele>312</ele>
        <time>2024-09-13T14:06:29Z</time>
      </trkpt>
      <trkpt lat="43.52527" lon="6.34236">
        <ele>312</ele>
        <time>2024-09-13T14:06:37Z</time>
      </trkpt>
      <trkpt lat="43.52524" lon="6.34238">
        <ele>311</ele>
        <time>2024-09-13T14:06:48Z</time>
      </trkpt>
      <trkpt lat="43.52516" lon="6.34242">
        <ele>312</ele>
        <time>2024-09-13T14:07:01Z</time>
      </trkpt>
      <trkpt lat="43.52512" lon="6.34243">
        <ele>312</ele>
        <time>2024-09-13T14:07:08Z</time>
      </trkpt>
      <trkpt lat="43.52507" lon="6.34251">
        <ele>313</ele>
        <time>2024-09-13T14:07:22Z</time>
      </trkpt>
      <trkpt lat="43.52505" lon="6.34256">
        <ele>314</ele>
        <time>2024-09-13T14:07:27Z</time>
      </trkpt>
      <trkpt lat="43.52502" lon="6.34259">
        <ele>313</ele>
        <time>2024-09-13T14:07:36Z</time>
      </trkpt>
      <trkpt lat="43.52499" lon="6.34264">
        <ele>313</ele>
        <time>2024-09-13T14:07:42Z</time>
      </trkpt>
      <trkpt lat="43.52496" lon="6.34268">
        <ele>314</ele>
        <time>2024-09-13T14:07:46Z</time>
      </trkpt>
      <trkpt lat="43.52494" lon="6.34272">
        <ele>314</ele>
        <time>2024-09-13T14:07:50Z</time>
      </trkpt>
      <trkpt lat="43.52487" lon="6.34278">
        <ele>315</ele>
        <time>2024-09-13T14:08:01Z</time>
      </trkpt>
      <trkpt lat="43.52482" lon="6.34285">
        <ele>316</ele>
        <time>2024-09-13T14:08:11Z</time>
      </trkpt>
      <trkpt lat="43.5248" lon="6.34289">
        <ele>316</ele>
        <time>2024-09-13T14:08:18Z</time>
      </trkpt>
      <trkpt lat="43.52476" lon="6.34293">
        <ele>316</ele>
        <time>2024-09-13T14:08:25Z</time>
      </trkpt>
      <trkpt lat="43.52473" lon="6.34295">
        <ele>316</ele>
        <time>2024-09-13T14:08:32Z</time>
      </trkpt>
      <trkpt lat="43.52462" lon="6.34305">
        <ele>316</ele>
        <time>2024-09-13T14:08:52Z</time>
      </trkpt>
      <trkpt lat="43.52459" lon="6.34307">
        <ele>317</ele>
        <time>2024-09-13T14:08:58Z</time>
      </trkpt>
      <trkpt lat="43.52452" lon="6.34312">
        <ele>317</ele>
        <time>2024-09-13T14:09:09Z</time>
      </trkpt>
      <trkpt lat="43.52449" lon="6.34317">
        <ele>317</ele>
        <time>2024-09-13T14:09:18Z</time>
      </trkpt>
      <trkpt lat="43.52445" lon="6.34318">
        <ele>317</ele>
        <time>2024-09-13T14:09:24Z</time>
      </trkpt>
      <trkpt lat="43.52442" lon="6.34319">
        <ele>317</ele>
        <time>2024-09-13T14:09:31Z</time>
      </trkpt>
      <trkpt lat="43.52438" lon="6.34322">
        <ele>317</ele>
        <time>2024-09-13T14:09:43Z</time>
      </trkpt>
      <trkpt lat="43.52434" lon="6.34325">
        <ele>317</ele>
        <time>2024-09-13T14:09:50Z</time>
      </trkpt>
      <trkpt lat="43.5242" lon="6.3434">
        <ele>319</ele>
        <time>2024-09-13T14:10:25Z</time>
      </trkpt>
      <trkpt lat="43.52404" lon="6.34355">
        <ele>321</ele>
        <time>2024-09-13T14:10:58Z</time>
      </trkpt>
      <trkpt lat="43.52402" lon="6.3436">
        <ele>322</ele>
        <time>2024-09-13T14:11:04Z</time>
      </trkpt>
      <trkpt lat="43.52397" lon="6.34369">
        <ele>321</ele>
        <time>2024-09-13T14:11:36Z</time>
      </trkpt>
      <trkpt lat="43.52394" lon="6.34371">
        <ele>321</ele>
        <time>2024-09-13T14:12:02Z</time>
      </trkpt>
      <trkpt lat="43.52391" lon="6.34375">
        <ele>320</ele>
        <time>2024-09-13T14:12:12Z</time>
      </trkpt>
      <trkpt lat="43.52387" lon="6.34375">
        <ele>320</ele>
        <time>2024-09-13T14:12:27Z</time>
      </trkpt>
      <trkpt lat="43.52388" lon="6.34383">
        <ele>321</ele>
        <time>2024-09-13T14:12:34Z</time>
      </trkpt>
      <trkpt lat="43.52392" lon="6.34391">
        <ele>320</ele>
        <time>2024-09-13T14:12:42Z</time>
      </trkpt>
      <trkpt lat="43.52392" lon="6.34398">
        <ele>320</ele>
        <time>2024-09-13T14:13:21Z</time>
      </trkpt>
      <trkpt lat="43.52384" lon="6.34414">
        <ele>319</ele>
        <time>2024-09-13T14:13:40Z</time>
      </trkpt>
      <trkpt lat="43.52379" lon="6.34422">
        <ele>319</ele>
        <time>2024-09-13T14:13:50Z</time>
      </trkpt>
      <trkpt lat="43.5237" lon="6.34441">
        <ele>320</ele>
        <time>2024-09-13T14:14:11Z</time>
      </trkpt>
      <trkpt lat="43.52365" lon="6.34446">
        <ele>320</ele>
        <time>2024-09-13T14:14:18Z</time>
      </trkpt>
      <trkpt lat="43.52351" lon="6.34459">
        <ele>320</ele>
        <time>2024-09-13T14:14:36Z</time>
      </trkpt>
      <trkpt lat="43.52347" lon="6.34462">
        <ele>320</ele>
        <time>2024-09-13T14:14:43Z</time>
      </trkpt>
      <trkpt lat="43.52343" lon="6.34462">
        <ele>321</ele>
        <time>2024-09-13T14:14:49Z</time>
      </trkpt>
      <trkpt lat="43.52341" lon="6.34467">
        <ele>320</ele>
        <time>2024-09-13T14:15:20Z</time>
      </trkpt>
      <trkpt lat="43.52339" lon="6.34473">
        <ele>316</ele>
        <time>2024-09-13T14:16:04Z</time>
      </trkpt>
      <trkpt lat="43.52345" lon="6.34486">
        <ele>317</ele>
        <time>2024-09-13T14:16:17Z</time>
      </trkpt>
      <trkpt lat="43.52348" lon="6.34489">
        <ele>317</ele>
        <time>2024-09-13T14:16:22Z</time>
      </trkpt>
      <trkpt lat="43.52354" lon="6.34499">
        <ele>318</ele>
        <time>2024-09-13T14:16:31Z</time>
      </trkpt>
      <trkpt lat="43.52358" lon="6.34503">
        <ele>318</ele>
        <time>2024-09-13T14:16:35Z</time>
      </trkpt>
      <trkpt lat="43.52361" lon="6.34507">
        <ele>319</ele>
        <time>2024-09-13T14:16:39Z</time>
      </trkpt>
      <trkpt lat="43.52365" lon="6.3451">
        <ele>318</ele>
        <time>2024-09-13T14:16:43Z</time>
      </trkpt>
      <trkpt lat="43.52376" lon="6.34524">
        <ele>318</ele>
        <time>2024-09-13T14:16:59Z</time>
      </trkpt>
      <trkpt lat="43.52379" lon="6.34527">
        <ele>318</ele>
        <time>2024-09-13T14:17:03Z</time>
      </trkpt>
      <trkpt lat="43.52383" lon="6.34529">
        <ele>318</ele>
        <time>2024-09-13T14:17:10Z</time>
      </trkpt>
      <trkpt lat="43.52396" lon="6.34542">
        <ele>318</ele>
        <time>2024-09-13T14:17:24Z</time>
      </trkpt>
      <trkpt lat="43.52403" lon="6.34551">
        <ele>317</ele>
        <time>2024-09-13T14:17:33Z</time>
      </trkpt>
      <trkpt lat="43.52407" lon="6.34553">
        <ele>318</ele>
        <time>2024-09-13T14:17:37Z</time>
      </trkpt>
      <trkpt lat="43.52423" lon="6.34572">
        <ele>319</ele>
        <time>2024-09-13T14:18:00Z</time>
      </trkpt>
      <trkpt lat="43.5245" lon="6.3459">
        <ele>316</ele>
        <time>2024-09-13T14:18:31Z</time>
      </trkpt>
      <trkpt lat="43.52454" lon="6.34591">
        <ele>316</ele>
        <time>2024-09-13T14:18:35Z</time>
      </trkpt>
      <trkpt lat="43.52459" lon="6.34592">
        <ele>316</ele>
        <time>2024-09-13T14:18:41Z</time>
      </trkpt>
      <trkpt lat="43.52463" lon="6.34596">
        <ele>316</ele>
        <time>2024-09-13T14:18:47Z</time>
      </trkpt>
      <trkpt lat="43.52494" lon="6.34604">
        <ele>311</ele>
        <time>2024-09-13T14:19:17Z</time>
      </trkpt>
      <trkpt lat="43.52498" lon="6.34604">
        <ele>311</ele>
        <time>2024-09-13T14:19:21Z</time>
      </trkpt>
    </trkseg>
  </trk>
</gpx>